ACA859 LIRF-CYYZ
Flight info
| Callsign | ACA859 |
|---|---|
| Flight time | 8h 55m |
| Altitude | 34000 |
| Route | PODOX DCT TOBGA DCT DOBIM DCT PIGOS DCT BODRU DCT KOTIT DCT ETREK DCT NOQAS DCT LERGA DCT FOUCO DCT MANAK DCT TIRAV DCT MOKOR DCT BAGAD DCT ALUTA DCT TAKAS/M084F340 DCT DINIM DCT 51N020W 50N030W 49N040W 48N050W DCT NICSO/N0486F340 N268A MIILS/N0491F380 DCT LETAK IMEBA9 |
| Aircraft | B77W/H-SDE1E2E3FGHIJ2J3J4J5M1RWXY/LB1D1 |
Departure
| Time | 2026-05-07 22:23 |
|---|---|
| Airport | Rome–Fiumicino Leonardo da Vinci International Airport (LIRF) |
Arrival
| Time | 2026-05-08 07:18 |
|---|---|
| Airport | Toronto Pearson International Airport (CYYZ) |
| Time | Latitude | Longitude | Altitude | Speed | Heading |
|---|---|---|---|---|---|
| 2026-05-07 19:30 | 41.79460 | 12.24120 | 19 ft | 0 kts | 25° |
| 2026-05-07 22:10 | 41.79456 | 12.24117 | 19 ft | 3 kts | 25° |
| 2026-05-07 22:11 | 41.79432 | 12.24102 | 24 ft | 4 kts | 25° |
| 2026-05-07 22:11 | 41.79407 | 12.24087 | 23 ft | 4 kts | 20° |
| 2026-05-07 22:11 | 41.79381 | 12.24078 | 22 ft | 4 kts | 1° |
| 2026-05-07 22:11 | 41.79357 | 12.24084 | 23 ft | 4 kts | 317° |
| 2026-05-07 22:12 | 41.79349 | 12.24099 | 22 ft | 0 kts | 281° |
| 2026-05-07 22:15 | 41.79351 | 12.24090 | 21 ft | 4 kts | 284° |
| 2026-05-07 22:15 | 41.79353 | 12.24080 | 23 ft | 1 kts | 287° |
| 2026-05-07 22:16 | 41.79353 | 12.24073 | 24 ft | 1 kts | 270° |
| 2026-05-07 22:16 | 41.79351 | 12.24064 | 24 ft | 1 kts | 258° |
| 2026-05-07 22:16 | 41.79348 | 12.24047 | 21 ft | 6 kts | 257° |
| 2026-05-07 22:16 | 41.79365 | 12.23900 | 20 ft | 26 kts | 317° |
| 2026-05-07 22:17 | 41.79588 | 12.23788 | 21 ft | 39 kts | 342° |
| 2026-05-07 22:17 | 41.79810 | 12.23736 | 19 ft | 27 kts | 30° |
| 2026-05-07 22:17 | 41.79890 | 12.23961 | 19 ft | 26 kts | 72° |
| 2026-05-07 22:17 | 41.79922 | 12.24184 | 19 ft | 20 kts | 78° |
| 2026-05-07 22:18 | 41.79966 | 12.24363 | 18 ft | 21 kts | 71° |
| 2026-05-07 22:18 | 41.80076 | 12.24754 | 19 ft | 23 kts | 69° |
| 2026-05-07 22:18 | 41.80108 | 12.24966 | 19 ft | 24 kts | 93° |
| 2026-05-07 22:19 | 41.80096 | 12.25186 | 19 ft | 24 kts | 78° |
| 2026-05-07 22:19 | 41.80150 | 12.25394 | 19 ft | 24 kts | 70° |
| 2026-05-07 22:19 | 41.80206 | 12.25602 | 19 ft | 24 kts | 69° |
| 2026-05-07 22:19 | 41.80264 | 12.25808 | 19 ft | 24 kts | 70° |
| 2026-05-07 22:20 | 41.80318 | 12.26013 | 19 ft | 24 kts | 70° |
| 2026-05-07 22:20 | 41.80375 | 12.26220 | 19 ft | 24 kts | 69° |
| 2026-05-07 22:20 | 41.80433 | 12.26427 | 22 ft | 24 kts | 69° |
| 2026-05-07 22:20 | 41.80491 | 12.26634 | 22 ft | 24 kts | 71° |
| 2026-05-07 22:21 | 41.80548 | 12.26842 | 18 ft | 24 kts | 70° |
| 2026-05-07 22:21 | 41.80600 | 12.27002 | 18 ft | 14 kts | 49° |
| 2026-05-07 22:21 | 41.80696 | 12.27050 | 18 ft | 16 kts | 8° |
| 2026-05-07 22:21 | 41.80806 | 12.27038 | 18 ft | 17 kts | 345° |
| 2026-05-07 22:22 | 41.80918 | 12.26982 | 18 ft | 14 kts | 329° |
| 2026-05-07 22:22 | 41.80940 | 12.26871 | 18 ft | 14 kts | 259° |
| 2026-05-07 22:22 | 41.80922 | 12.26802 | 18 ft | 0 kts | 249° |
| 2026-05-07 22:22 | 41.80921 | 12.26797 | 18 ft | 6 kts | 249° |
| 2026-05-07 22:23 | 41.80797 | 12.26347 | 25 ft | 102 kts | 250° |
| 2026-05-07 22:23 | 41.80434 | 12.25004 | 24 ft | 201 kts | 250° |
| 2026-05-07 22:23 | 41.79841 | 12.22974 | 374 ft | 251 kts | 248° |
| 2026-05-07 22:23 | 41.79242 | 12.20872 | 823 ft | 229 kts | 255° |
| 2026-05-07 22:24 | 41.79059 | 12.18875 | 1335 ft | 206 kts | 265° |
| 2026-05-07 22:24 | 41.78989 | 12.16899 | 1670 ft | 230 kts | 270° |
| 2026-05-07 22:24 | 41.79022 | 12.14733 | 2825 ft | 231 kts | 270° |
| 2026-05-07 22:24 | 41.79025 | 12.12556 | 3565 ft | 239 kts | 269° |
| 2026-05-07 22:25 | 41.78997 | 12.10283 | 4198 ft | 248 kts | 269° |
| 2026-05-07 22:25 | 41.78994 | 12.07930 | 4906 ft | 257 kts | 270° |
| 2026-05-07 22:25 | 41.79003 | 12.05504 | 5629 ft | 262 kts | 269° |
| 2026-05-07 22:25 | 41.79008 | 12.03877 | 5974 ft | 264 kts | 269° |
| 2026-05-07 22:26 | 41.79012 | 12.01407 | 6053 ft | 266 kts | 269° |
| 2026-05-07 22:26 | 41.79012 | 11.98939 | 6066 ft | 266 kts | 269° |
| 2026-05-07 22:26 | 41.79010 | 11.96461 | 6060 ft | 265 kts | 269° |
| 2026-05-07 22:26 | 41.79004 | 11.94012 | 6055 ft | 265 kts | 269° |
| 2026-05-07 22:27 | 41.78999 | 11.91521 | 6057 ft | 267 kts | 269° |
| 2026-05-07 22:27 | 41.78992 | 11.89057 | 6052 ft | 267 kts | 269° |
| 2026-05-07 22:27 | 41.78983 | 11.86559 | 6045 ft | 266 kts | 269° |
| 2026-05-07 22:27 | 41.78974 | 11.84067 | 6045 ft | 265 kts | 269° |
| 2026-05-07 22:28 | 41.78965 | 11.81617 | 6045 ft | 264 kts | 269° |
| 2026-05-07 22:28 | 41.78956 | 11.79176 | 6045 ft | 264 kts | 268° |
| 2026-05-07 22:28 | 41.78944 | 11.76687 | 6039 ft | 265 kts | 269° |
| 2026-05-07 22:28 | 41.78934 | 11.74225 | 6039 ft | 265 kts | 268° |
| 2026-05-07 22:29 | 41.78922 | 11.71767 | 6032 ft | 267 kts | 268° |
| 2026-05-07 22:29 | 41.78910 | 11.69288 | 6029 ft | 267 kts | 269° |
| 2026-05-07 22:29 | 41.78899 | 11.66769 | 6025 ft | 268 kts | 269° |
| 2026-05-07 22:29 | 41.78886 | 11.64284 | 6023 ft | 267 kts | 268° |
| 2026-05-07 22:30 | 41.78872 | 11.61815 | 6021 ft | 267 kts | 268° |
| 2026-05-07 22:30 | 41.78858 | 11.59319 | 6027 ft | 266 kts | 268° |
| 2026-05-07 22:30 | 41.78845 | 11.56830 | 6024 ft | 264 kts | 270° |
| 2026-05-07 22:30 | 41.79220 | 11.54476 | 6020 ft | 264 kts | 297° |
| 2026-05-07 22:31 | 41.80234 | 11.52411 | 6043 ft | 272 kts | 303° |
| 2026-05-07 22:31 | 41.81324 | 11.50290 | 6587 ft | 275 kts | 302° |
| 2026-05-07 22:31 | 41.82392 | 11.48195 | 7514 ft | 272 kts | 302° |
| 2026-05-07 22:31 | 41.83450 | 11.46121 | 8462 ft | 270 kts | 302° |
| 2026-05-07 22:32 | 41.84507 | 11.44045 | 9291 ft | 273 kts | 302° |
| 2026-05-07 22:32 | 41.85587 | 11.41922 | 10102 ft | 276 kts | 301° |
| 2026-05-07 22:32 | 41.86681 | 11.39765 | 10603 ft | 290 kts | 301° |
| 2026-05-07 22:32 | 41.87869 | 11.37410 | 10792 ft | 315 kts | 301° |
| 2026-05-07 22:33 | 41.89139 | 11.34894 | 10989 ft | 340 kts | 301° |
| 2026-05-07 22:33 | 41.90500 | 11.32198 | 11357 ft | 358 kts | 301° |
| 2026-05-07 22:33 | 41.91927 | 11.29375 | 12072 ft | 367 kts | 301° |
| 2026-05-07 22:33 | 41.93370 | 11.26522 | 12894 ft | 373 kts | 301° |
| 2026-05-07 22:34 | 41.94826 | 11.23640 | 13769 ft | 377 kts | 301° |
| 2026-05-07 22:34 | 41.96314 | 11.20691 | 14545 ft | 381 kts | 300° |
| 2026-05-07 22:34 | 41.97796 | 11.17748 | 15305 ft | 385 kts | 300° |
| 2026-05-07 22:34 | 41.99296 | 11.14765 | 16055 ft | 389 kts | 300° |
| 2026-05-07 22:35 | 42.00819 | 11.11733 | 16801 ft | 394 kts | 300° |
| 2026-05-07 22:35 | 42.02368 | 11.08644 | 17545 ft | 398 kts | 300° |
| 2026-05-07 22:35 | 42.03908 | 11.05572 | 18283 ft | 403 kts | 300° |
| 2026-05-07 22:35 | 42.05479 | 11.02433 | 18928 ft | 407 kts | 300° |
| 2026-05-07 22:36 | 42.07071 | 10.99251 | 19593 ft | 410 kts | 300° |
| 2026-05-07 22:36 | 42.08659 | 10.96074 | 20257 ft | 413 kts | 299° |
| 2026-05-07 22:36 | 42.10281 | 10.92824 | 20953 ft | 416 kts | 299° |
| 2026-05-07 22:36 | 42.11891 | 10.89594 | 21591 ft | 419 kts | 299° |
| 2026-05-07 22:37 | 42.13521 | 10.86321 | 22199 ft | 423 kts | 299° |
| 2026-05-07 22:37 | 42.15160 | 10.83025 | 22810 ft | 427 kts | 299° |
| 2026-05-07 22:37 | 42.16830 | 10.79664 | 23399 ft | 431 kts | 298° |
| 2026-05-07 22:37 | 42.18493 | 10.76314 | 23926 ft | 434 kts | 298° |
| 2026-05-07 22:38 | 42.20168 | 10.72937 | 24429 ft | 437 kts | 298° |
| 2026-05-07 22:38 | 42.21860 | 10.69522 | 24977 ft | 438 kts | 298° |
| 2026-05-07 22:38 | 42.23555 | 10.66098 | 25491 ft | 441 kts | 298° |
| 2026-05-07 22:38 | 42.25257 | 10.62655 | 25983 ft | 443 kts | 298° |
| 2026-05-07 22:39 | 42.27084 | 10.59276 | 26434 ft | 450 kts | 304° |
| 2026-05-07 22:39 | 42.29173 | 10.56107 | 26918 ft | 456 kts | 309° |
| 2026-05-07 22:39 | 42.31510 | 10.53184 | 27374 ft | 463 kts | 314° |
| 2026-05-07 22:39 | 42.34009 | 10.50351 | 27807 ft | 466 kts | 314° |
| 2026-05-07 22:40 | 42.36487 | 10.47559 | 28209 ft | 469 kts | 314° |
| 2026-05-07 22:40 | 42.38995 | 10.44726 | 28606 ft | 472 kts | 314° |
| 2026-05-07 22:40 | 42.41504 | 10.41879 | 28968 ft | 474 kts | 314° |
| 2026-05-07 22:40 | 42.44043 | 10.38980 | 29343 ft | 476 kts | 314° |
| 2026-05-07 22:41 | 42.46566 | 10.36087 | 29681 ft | 478 kts | 314° |
| 2026-05-07 22:41 | 42.49101 | 10.33171 | 30090 ft | 479 kts | 314° |
| 2026-05-07 22:41 | 42.51662 | 10.30223 | 30549 ft | 476 kts | 314° |
| 2026-05-07 22:41 | 42.54134 | 10.27374 | 31085 ft | 472 kts | 313° |
| 2026-05-07 22:42 | 42.56647 | 10.24476 | 31638 ft | 468 kts | 313° |
| 2026-05-07 22:42 | 42.59100 | 10.21641 | 32064 ft | 466 kts | 313° |
| 2026-05-07 22:42 | 42.61551 | 10.18803 | 32534 ft | 463 kts | 313° |
| 2026-05-07 22:42 | 42.64017 | 10.15946 | 33012 ft | 460 kts | 313° |
| 2026-05-07 22:43 | 42.66439 | 10.13137 | 33395 ft | 459 kts | 313° |
| 2026-05-07 22:43 | 42.68851 | 10.10335 | 33714 ft | 458 kts | 313° |
| 2026-05-07 22:43 | 42.71268 | 10.07523 | 33963 ft | 460 kts | 313° |
| 2026-05-07 22:44 | 42.76162 | 10.01820 | 34013 ft | 462 kts | 313° |
| 2026-05-07 22:44 | 42.80995 | 9.96188 | 34037 ft | 456 kts | 313° |
| 2026-05-07 22:45 | 42.85824 | 9.90542 | 34026 ft | 456 kts | 312° |
| 2026-05-07 22:45 | 42.90280 | 9.84565 | 34019 ft | 447 kts | 303° |
| 2026-05-07 22:46 | 42.93909 | 9.77733 | 34022 ft | 441 kts | 296° |
| 2026-05-07 22:46 | 42.96789 | 9.70444 | 34022 ft | 434 kts | 288° |
| 2026-05-07 22:47 | 42.99021 | 9.62794 | 34027 ft | 434 kts | 287° |
| 2026-05-07 22:47 | 43.01231 | 9.55149 | 34022 ft | 434 kts | 287° |
| 2026-05-07 22:48 | 43.03453 | 9.47489 | 34022 ft | 435 kts | 287° |
| 2026-05-07 22:48 | 43.05695 | 9.39768 | 34026 ft | 435 kts | 287° |
| 2026-05-07 22:49 | 43.07916 | 9.32111 | 34020 ft | 433 kts | 287° |
| 2026-05-07 22:49 | 43.10125 | 9.24471 | 34020 ft | 432 kts | 287° |
| 2026-05-07 22:50 | 43.12321 | 9.16848 | 34018 ft | 430 kts | 287° |
| 2026-05-07 22:50 | 43.14509 | 9.09232 | 34020 ft | 430 kts | 287° |
| 2026-05-07 22:51 | 43.16681 | 9.01645 | 34006 ft | 430 kts | 287° |
| 2026-05-07 22:51 | 43.18858 | 8.94017 | 34016 ft | 430 kts | 287° |
| 2026-05-07 22:52 | 43.21034 | 8.86372 | 34016 ft | 430 kts | 287° |
| 2026-05-07 22:52 | 43.23199 | 8.78741 | 34014 ft | 431 kts | 287° |
| 2026-05-07 22:53 | 43.25369 | 8.71070 | 34030 ft | 431 kts | 287° |
| 2026-05-07 22:53 | 43.27525 | 8.63428 | 34004 ft | 431 kts | 287° |
| 2026-05-07 22:54 | 43.29680 | 8.55763 | 34004 ft | 431 kts | 287° |
| 2026-05-07 22:54 | 43.31833 | 8.48084 | 34037 ft | 430 kts | 287° |
| 2026-05-07 22:55 | 43.33976 | 8.40414 | 34016 ft | 431 kts | 287° |
| 2026-05-07 22:55 | 43.36117 | 8.32728 | 34012 ft | 430 kts | 287° |
| 2026-05-07 22:56 | 43.38243 | 8.25072 | 34001 ft | 430 kts | 287° |
| 2026-05-07 22:56 | 43.40370 | 8.17388 | 34005 ft | 429 kts | 287° |
| 2026-05-07 22:57 | 43.42478 | 8.09753 | 34003 ft | 429 kts | 287° |
| 2026-05-07 22:57 | 43.44594 | 8.02060 | 34003 ft | 429 kts | 287° |
| 2026-05-07 22:58 | 43.46690 | 7.94418 | 34003 ft | 429 kts | 287° |
| 2026-05-07 22:58 | 43.48788 | 7.86741 | 34005 ft | 429 kts | 287° |
| 2026-05-07 22:59 | 43.50881 | 7.79064 | 34005 ft | 429 kts | 287° |
| 2026-05-07 22:59 | 43.52981 | 7.71331 | 34006 ft | 429 kts | 287° |
| 2026-05-07 23:00 | 43.55064 | 7.63639 | 34006 ft | 429 kts | 286° |
| 2026-05-07 23:00 | 43.57139 | 7.55955 | 34008 ft | 430 kts | 287° |
| 2026-05-07 23:01 | 43.59214 | 7.48245 | 34023 ft | 430 kts | 287° |
| 2026-05-07 23:01 | 43.61433 | 7.40571 | 33989 ft | 434 kts | 292° |
| 2026-05-07 23:02 | 43.64515 | 7.33386 | 33999 ft | 438 kts | 299° |
| 2026-05-07 23:02 | 43.68311 | 7.26745 | 34001 ft | 442 kts | 304° |
| 2026-05-07 23:03 | 43.72265 | 7.20231 | 33994 ft | 442 kts | 304° |
| 2026-05-07 23:03 | 43.76185 | 7.13729 | 34000 ft | 441 kts | 304° |
| 2026-05-07 23:04 | 43.80114 | 7.07153 | 33995 ft | 441 kts | 304° |
| 2026-05-07 23:04 | 43.84005 | 7.00608 | 33999 ft | 441 kts | 304° |
| 2026-05-07 23:05 | 43.87911 | 6.94021 | 33994 ft | 442 kts | 304° |
| 2026-05-07 23:05 | 43.91802 | 6.87446 | 33992 ft | 442 kts | 304° |
| 2026-05-07 23:06 | 43.95683 | 6.80875 | 33996 ft | 442 kts | 304° |
| 2026-05-07 23:06 | 43.99597 | 6.74232 | 33983 ft | 443 kts | 304° |
| 2026-05-07 23:07 | 44.03480 | 6.67627 | 34006 ft | 443 kts | 304° |
| 2026-05-07 23:07 | 44.07378 | 6.60981 | 33994 ft | 444 kts | 304° |
| 2026-05-07 23:08 | 44.11275 | 6.54321 | 33986 ft | 444 kts | 304° |
| 2026-05-07 23:08 | 44.15158 | 6.47667 | 33992 ft | 444 kts | 304° |
| 2026-05-07 23:09 | 44.19050 | 6.40987 | 33997 ft | 444 kts | 304° |
| 2026-05-07 23:09 | 44.22943 | 6.34286 | 33978 ft | 443 kts | 304° |
| 2026-05-07 23:10 | 44.26788 | 6.27648 | 33993 ft | 442 kts | 304° |
| 2026-05-07 23:10 | 44.30644 | 6.20971 | 33981 ft | 439 kts | 304° |
| 2026-05-07 23:11 | 44.34461 | 6.14347 | 33991 ft | 439 kts | 304° |
| 2026-05-07 23:11 | 44.38286 | 6.07692 | 33994 ft | 442 kts | 304° |
| 2026-05-07 23:12 | 44.42163 | 6.00933 | 33986 ft | 444 kts | 304° |
| 2026-05-07 23:12 | 44.46004 | 5.94223 | 33984 ft | 446 kts | 304° |
| 2026-05-07 23:13 | 44.49879 | 5.87437 | 33992 ft | 446 kts | 304° |
| 2026-05-07 23:13 | 44.53740 | 5.80658 | 33986 ft | 446 kts | 304° |
| 2026-05-07 23:14 | 44.57621 | 5.73828 | 33979 ft | 446 kts | 304° |
| 2026-05-07 23:14 | 44.61463 | 5.67052 | 33985 ft | 444 kts | 304° |
| 2026-05-07 23:15 | 44.65307 | 5.60257 | 33987 ft | 444 kts | 304° |
| 2026-05-07 23:15 | 44.69128 | 5.53480 | 33989 ft | 444 kts | 304° |
| 2026-05-07 23:16 | 44.72965 | 5.46660 | 34000 ft | 445 kts | 304° |
| 2026-05-07 23:16 | 44.76803 | 5.39819 | 33990 ft | 445 kts | 304° |
| 2026-05-07 23:17 | 44.80622 | 5.33001 | 34004 ft | 445 kts | 304° |
| 2026-05-07 23:17 | 44.84459 | 5.26131 | 34010 ft | 446 kts | 304° |
| 2026-05-07 23:18 | 44.88273 | 5.19285 | 34039 ft | 447 kts | 304° |
| 2026-05-07 23:18 | 44.92113 | 5.12378 | 34033 ft | 448 kts | 304° |
| 2026-05-07 23:19 | 44.95960 | 5.05443 | 34014 ft | 449 kts | 304° |
| 2026-05-07 23:19 | 44.99811 | 4.98481 | 34022 ft | 449 kts | 304° |
| 2026-05-07 23:20 | 45.03632 | 4.91558 | 34018 ft | 449 kts | 304° |
| 2026-05-07 23:20 | 45.07474 | 4.84577 | 34027 ft | 450 kts | 304° |
| 2026-05-07 23:21 | 45.11300 | 4.77610 | 34032 ft | 450 kts | 304° |
| 2026-05-07 23:21 | 45.15141 | 4.70600 | 34030 ft | 451 kts | 304° |
| 2026-05-07 23:22 | 45.18211 | 4.62957 | 34032 ft | 443 kts | 288° |
| 2026-05-07 23:22 | 45.19658 | 4.54567 | 34037 ft | 440 kts | 275° |
| 2026-05-07 23:23 | 45.20281 | 4.45957 | 34031 ft | 442 kts | 275° |
| 2026-05-07 23:23 | 45.20940 | 4.37289 | 34036 ft | 443 kts | 275° |
| 2026-05-07 23:24 | 45.21632 | 4.28574 | 34033 ft | 444 kts | 275° |
| 2026-05-07 23:24 | 45.22313 | 4.19893 | 34035 ft | 445 kts | 275° |
| 2026-05-07 23:25 | 45.22982 | 4.11201 | 34024 ft | 444 kts | 275° |
| 2026-05-07 23:25 | 45.23648 | 4.02465 | 34027 ft | 443 kts | 275° |
| 2026-05-07 23:26 | 45.24301 | 3.93815 | 34029 ft | 443 kts | 275° |
| 2026-05-07 23:26 | 45.24951 | 3.85141 | 34033 ft | 442 kts | 275° |
| 2026-05-07 23:27 | 45.26123 | 3.72103 | 34026 ft | 444 kts | 281° |
| 2026-05-07 23:27 | 45.27574 | 3.63609 | 34037 ft | 445 kts | 282° |
| 2026-05-07 23:28 | 45.29018 | 3.55085 | 34027 ft | 445 kts | 281° |
| 2026-05-07 23:28 | 45.30447 | 3.46512 | 34025 ft | 445 kts | 281° |
| 2026-05-07 23:29 | 45.31857 | 3.37969 | 34032 ft | 446 kts | 281° |
| 2026-05-07 23:29 | 45.33258 | 3.29421 | 34028 ft | 446 kts | 281° |
| 2026-05-07 23:30 | 45.34663 | 3.20810 | 34034 ft | 446 kts | 281° |
| 2026-05-07 23:30 | 45.36055 | 3.12240 | 34036 ft | 445 kts | 281° |
| 2026-05-07 23:31 | 45.37435 | 3.03694 | 34026 ft | 446 kts | 281° |
| 2026-05-07 23:31 | 45.38821 | 2.95070 | 34032 ft | 447 kts | 281° |
| 2026-05-07 23:32 | 45.40195 | 2.86478 | 34032 ft | 448 kts | 281° |
| 2026-05-07 23:32 | 45.41579 | 2.77779 | 34025 ft | 449 kts | 281° |
| 2026-05-07 23:33 | 45.42949 | 2.69123 | 34027 ft | 450 kts | 281° |
| 2026-05-07 23:33 | 45.44320 | 2.60410 | 34019 ft | 450 kts | 280° |
| 2026-05-07 23:34 | 45.45675 | 2.51756 | 34019 ft | 450 kts | 280° |
| 2026-05-07 23:34 | 45.47033 | 2.43036 | 34028 ft | 450 kts | 280° |
| 2026-05-07 23:35 | 45.48381 | 2.34331 | 34023 ft | 449 kts | 280° |
| 2026-05-07 23:35 | 45.49716 | 2.25668 | 34014 ft | 449 kts | 280° |
| 2026-05-07 23:36 | 45.51047 | 2.16984 | 34018 ft | 448 kts | 280° |
| 2026-05-07 23:36 | 45.52372 | 2.08285 | 34020 ft | 448 kts | 280° |
| 2026-05-07 23:37 | 45.53684 | 1.99634 | 34031 ft | 448 kts | 280° |
| 2026-05-07 23:37 | 45.54988 | 1.90979 | 34025 ft | 448 kts | 280° |
| 2026-05-07 23:38 | 45.56292 | 1.82279 | 34023 ft | 449 kts | 280° |
| 2026-05-07 23:38 | 45.57591 | 1.73570 | 34027 ft | 450 kts | 280° |
| 2026-05-07 23:39 | 45.58672 | 1.66280 | 34018 ft | 451 kts | 280° |
| 2026-05-07 23:39 | 45.60182 | 1.56045 | 34026 ft | 452 kts | 280° |
| 2026-05-07 23:40 | 45.61257 | 1.48716 | 34026 ft | 453 kts | 279° |
| 2026-05-07 23:40 | 45.62538 | 1.39935 | 34036 ft | 453 kts | 279° |
| 2026-05-07 23:41 | 45.63824 | 1.31069 | 34038 ft | 453 kts | 279° |
| 2026-05-07 23:41 | 45.65089 | 1.22302 | 34019 ft | 453 kts | 279° |
| 2026-05-07 23:42 | 45.66357 | 1.13454 | 34039 ft | 453 kts | 279° |
| 2026-05-07 23:42 | 45.67610 | 1.04666 | 34031 ft | 453 kts | 279° |
| 2026-05-07 23:43 | 45.68864 | 0.95820 | 34014 ft | 453 kts | 279° |
| 2026-05-07 23:43 | 45.70107 | 0.86998 | 34016 ft | 453 kts | 279° |
| 2026-05-07 23:44 | 45.71339 | 0.78205 | 34027 ft | 453 kts | 279° |
| 2026-05-07 23:44 | 45.72572 | 0.69347 | 34019 ft | 453 kts | 279° |
| 2026-05-07 23:45 | 45.73795 | 0.60513 | 34021 ft | 453 kts | 279° |
| 2026-05-07 23:45 | 45.75037 | 0.51681 | 34017 ft | 454 kts | 281° |
| 2026-05-07 23:46 | 45.77075 | 0.43065 | 34020 ft | 459 kts | 292° |
| 2026-05-07 23:46 | 45.79825 | 0.34822 | 34023 ft | 460 kts | 293° |
| 2026-05-07 23:47 | 45.82578 | 0.26566 | 34019 ft | 461 kts | 292° |
| 2026-05-07 23:47 | 45.85312 | 0.18263 | 34024 ft | 462 kts | 292° |
| 2026-05-07 23:48 | 45.88031 | 0.09939 | 34024 ft | 462 kts | 292° |
| 2026-05-07 23:48 | 45.90757 | 0.01559 | 34023 ft | 462 kts | 292° |
| 2026-05-07 23:49 | 45.93460 | -0.06776 | 34020 ft | 462 kts | 292° |
| 2026-05-07 23:49 | 45.96175 | -0.15169 | 34026 ft | 462 kts | 292° |
| 2026-05-07 23:50 | 45.98874 | -0.23547 | 34032 ft | 463 kts | 292° |
| 2026-05-07 23:50 | 46.01563 | -0.31914 | 34024 ft | 463 kts | 292° |
| 2026-05-07 23:51 | 46.04265 | -0.40351 | 34026 ft | 464 kts | 292° |
| 2026-05-07 23:51 | 46.06949 | -0.48759 | 34025 ft | 464 kts | 292° |
| 2026-05-07 23:52 | 46.09638 | -0.57211 | 34027 ft | 463 kts | 292° |
| 2026-05-07 23:52 | 46.12318 | -0.65664 | 34021 ft | 463 kts | 292° |
| 2026-05-07 23:53 | 46.14981 | -0.74092 | 34025 ft | 463 kts | 292° |
| 2026-05-07 23:53 | 46.17633 | -0.82505 | 34034 ft | 463 kts | 292° |
| 2026-05-07 23:54 | 46.20473 | -0.90902 | 34019 ft | 467 kts | 300° |
| 2026-05-07 23:54 | 46.24616 | -0.98148 | 34027 ft | 473 kts | 314° |
| 2026-05-07 23:55 | 46.29759 | -1.04160 | 34028 ft | 476 kts | 319° |
| 2026-05-07 23:55 | 46.34949 | -1.10028 | 34024 ft | 476 kts | 319° |
| 2026-05-07 23:56 | 46.40144 | -1.16010 | 34020 ft | 476 kts | 319° |
| 2026-05-07 23:56 | 46.45291 | -1.22003 | 34026 ft | 476 kts | 319° |
| 2026-05-07 23:57 | 46.50435 | -1.28012 | 34022 ft | 476 kts | 319° |
| 2026-05-07 23:57 | 46.55615 | -1.34072 | 34025 ft | 477 kts | 319° |
| 2026-05-07 23:58 | 46.60701 | -1.40199 | 34021 ft | 475 kts | 314° |
| 2026-05-07 23:58 | 46.65301 | -1.47102 | 34027 ft | 474 kts | 311° |
| 2026-05-07 23:59 | 46.69808 | -1.54048 | 34019 ft | 474 kts | 311° |
| 2026-05-07 23:59 | 46.74366 | -1.61021 | 34023 ft | 473 kts | 311° |
| 2026-05-08 00:00 | 46.78897 | -1.67928 | 34018 ft | 474 kts | 311° |
| 2026-05-08 00:00 | 46.83467 | -1.74903 | 34022 ft | 474 kts | 311° |
| 2026-05-08 00:01 | 46.88008 | -1.81857 | 34019 ft | 474 kts | 311° |
| 2026-05-08 00:01 | 46.92532 | -1.88805 | 34021 ft | 474 kts | 311° |
| 2026-05-08 00:02 | 46.97085 | -1.95817 | 34019 ft | 474 kts | 311° |
| 2026-05-08 00:02 | 47.01630 | -2.02819 | 34020 ft | 475 kts | 312° |
| 2026-05-08 00:03 | 47.06243 | -2.09695 | 34024 ft | 476 kts | 313° |
| 2026-05-08 00:03 | 47.10927 | -2.16606 | 34022 ft | 476 kts | 313° |
| 2026-05-08 00:04 | 47.15563 | -2.23491 | 34035 ft | 477 kts | 312° |
| 2026-05-08 00:04 | 47.20249 | -2.30493 | 34018 ft | 478 kts | 313° |
| 2026-05-08 00:05 | 47.24892 | -2.37457 | 34025 ft | 478 kts | 312° |
| 2026-05-08 00:05 | 47.29518 | -2.44411 | 34017 ft | 477 kts | 312° |
| 2026-05-08 00:06 | 47.34178 | -2.51435 | 34024 ft | 477 kts | 312° |
| 2026-05-08 00:06 | 47.38791 | -2.58406 | 34024 ft | 477 kts | 312° |
| 2026-05-08 00:07 | 47.43418 | -2.65417 | 34024 ft | 478 kts | 312° |
| 2026-05-08 00:07 | 47.48073 | -2.72491 | 34019 ft | 479 kts | 312° |
| 2026-05-08 00:08 | 47.52707 | -2.79549 | 34021 ft | 479 kts | 312° |
| 2026-05-08 00:08 | 47.57192 | -2.86775 | 34017 ft | 478 kts | 306° |
| 2026-05-08 00:09 | 47.60740 | -2.95033 | 34028 ft | 475 kts | 294° |
| 2026-05-08 00:09 | 47.63657 | -3.03842 | 34021 ft | 475 kts | 294° |
| 2026-05-08 00:10 | 47.66538 | -3.12609 | 34021 ft | 475 kts | 294° |
| 2026-05-08 00:10 | 47.69464 | -3.21450 | 34023 ft | 476 kts | 294° |
| 2026-05-08 00:11 | 47.72375 | -3.30219 | 34022 ft | 475 kts | 294° |
| 2026-05-08 00:11 | 47.75281 | -3.38993 | 34045 ft | 475 kts | 294° |
| 2026-05-08 00:12 | 47.78194 | -3.47817 | 34028 ft | 475 kts | 294° |
| 2026-05-08 00:12 | 47.81084 | -3.56604 | 34020 ft | 474 kts | 294° |
| 2026-05-08 00:13 | 47.83975 | -3.65427 | 34014 ft | 473 kts | 294° |
| 2026-05-08 00:13 | 47.86849 | -3.74229 | 34020 ft | 473 kts | 294° |
| 2026-05-08 00:14 | 47.89708 | -3.83017 | 34014 ft | 473 kts | 293° |
| 2026-05-08 00:14 | 47.92583 | -3.91883 | 34000 ft | 474 kts | 293° |
| 2026-05-08 00:15 | 47.95442 | -4.00728 | 34001 ft | 475 kts | 293° |
| 2026-05-08 00:15 | 47.98305 | -4.09618 | 33998 ft | 475 kts | 293° |
| 2026-05-08 00:16 | 48.01149 | -4.18481 | 33997 ft | 475 kts | 293° |
| 2026-05-08 00:16 | 48.03992 | -4.27371 | 34010 ft | 475 kts | 293° |
| 2026-05-08 00:17 | 48.06838 | -4.36303 | 33993 ft | 476 kts | 293° |
| 2026-05-08 00:17 | 48.09669 | -4.45219 | 34009 ft | 476 kts | 293° |
| 2026-05-08 00:18 | 48.12509 | -4.54193 | 34007 ft | 476 kts | 293° |
| 2026-05-08 00:18 | 48.15327 | -4.63130 | 34012 ft | 476 kts | 292° |
| 2026-05-08 00:19 | 48.18141 | -4.72089 | 34009 ft | 475 kts | 292° |
| 2026-05-08 00:19 | 48.20949 | -4.81057 | 34010 ft | 475 kts | 292° |
| 2026-05-08 00:20 | 48.23734 | -4.89985 | 34029 ft | 474 kts | 292° |
| 2026-05-08 00:20 | 48.26523 | -4.98960 | 34018 ft | 474 kts | 292° |
| 2026-05-08 00:21 | 48.29297 | -5.07916 | 34018 ft | 474 kts | 292° |
| 2026-05-08 00:21 | 48.32071 | -5.16907 | 34033 ft | 474 kts | 292° |
| 2026-05-08 00:22 | 48.34834 | -5.25894 | 34023 ft | 475 kts | 292° |
| 2026-05-08 00:22 | 48.37607 | -5.34946 | 34019 ft | 476 kts | 292° |
| 2026-05-08 00:23 | 48.40367 | -5.43988 | 34021 ft | 476 kts | 292° |
| 2026-05-08 00:23 | 48.43114 | -5.53020 | 34024 ft | 476 kts | 292° |
| 2026-05-08 00:24 | 48.45877 | -5.62140 | 34028 ft | 477 kts | 292° |
| 2026-05-08 00:24 | 48.48624 | -5.71241 | 34027 ft | 477 kts | 292° |
| 2026-05-08 00:25 | 48.51365 | -5.80352 | 34033 ft | 478 kts | 292° |
| 2026-05-08 00:25 | 48.54086 | -5.89434 | 34020 ft | 478 kts | 291° |
| 2026-05-08 00:26 | 48.56824 | -5.98602 | 34022 ft | 478 kts | 291° |
| 2026-05-08 00:26 | 48.59535 | -6.07719 | 34039 ft | 478 kts | 291° |
| 2026-05-08 00:27 | 48.62252 | -6.16888 | 34026 ft | 479 kts | 291° |
| 2026-05-08 00:27 | 48.64981 | -6.26134 | 34025 ft | 480 kts | 291° |
| 2026-05-08 00:28 | 48.67686 | -6.35332 | 34022 ft | 481 kts | 291° |
| 2026-05-08 00:28 | 48.70394 | -6.44574 | 34019 ft | 481 kts | 291° |
| 2026-05-08 00:29 | 48.73100 | -6.53844 | 34022 ft | 481 kts | 291° |
| 2026-05-08 00:29 | 48.75784 | -6.63078 | 34029 ft | 482 kts | 291° |
| 2026-05-08 00:30 | 48.78484 | -6.72397 | 34025 ft | 482 kts | 291° |
| 2026-05-08 00:30 | 48.81181 | -6.81745 | 34018 ft | 483 kts | 291° |
| 2026-05-08 00:31 | 48.83850 | -6.91034 | 34025 ft | 483 kts | 291° |
| 2026-05-08 00:31 | 48.86536 | -7.00414 | 34026 ft | 483 kts | 291° |
| 2026-05-08 00:32 | 48.89198 | -7.09748 | 34018 ft | 484 kts | 291° |
| 2026-05-08 00:32 | 48.91864 | -7.19136 | 34015 ft | 484 kts | 291° |
| 2026-05-08 00:33 | 48.94521 | -7.28529 | 34018 ft | 484 kts | 291° |
| 2026-05-08 00:33 | 48.97166 | -7.37909 | 34020 ft | 484 kts | 290° |
| 2026-05-08 00:34 | 48.99559 | -7.47457 | 34007 ft | 481 kts | 281° |
| 2026-05-08 00:34 | 49.00520 | -7.57484 | 34017 ft | 476 kts | 268° |
| 2026-05-08 00:35 | 49.00391 | -7.67504 | 34023 ft | 475 kts | 266° |
| 2026-05-08 00:35 | 49.00243 | -7.77580 | 34022 ft | 475 kts | 266° |
| 2026-05-08 00:36 | 49.00140 | -7.87659 | 34022 ft | 476 kts | 266° |
| 2026-05-08 00:36 | 49.00365 | -7.97701 | 34022 ft | 479 kts | 278° |
| 2026-05-08 00:37 | 49.02286 | -8.07440 | 34026 ft | 483 kts | 293° |
| 2026-05-08 00:38 | 49.06841 | -8.21156 | 34023 ft | 485 kts | 295° |
| 2026-05-08 00:38 | 49.09877 | -8.30288 | 34022 ft | 485 kts | 295° |
| 2026-05-08 00:39 | 49.12882 | -8.39494 | 34020 ft | 485 kts | 294° |
| 2026-05-08 00:39 | 49.15865 | -8.48726 | 34023 ft | 484 kts | 294° |
| 2026-05-08 00:40 | 49.18833 | -8.57955 | 34014 ft | 484 kts | 294° |
| 2026-05-08 00:40 | 49.21782 | -8.67155 | 34020 ft | 483 kts | 294° |
| 2026-05-08 00:41 | 49.24736 | -8.76398 | 34018 ft | 482 kts | 294° |
| 2026-05-08 00:41 | 49.27663 | -8.85589 | 34021 ft | 482 kts | 294° |
| 2026-05-08 00:42 | 49.30583 | -8.94794 | 34031 ft | 482 kts | 295° |
| 2026-05-08 00:42 | 49.33509 | -9.04053 | 34011 ft | 481 kts | 294° |
| 2026-05-08 00:43 | 49.36418 | -9.13287 | 34018 ft | 480 kts | 294° |
| 2026-05-08 00:43 | 49.39300 | -9.22473 | 34024 ft | 480 kts | 294° |
| 2026-05-08 00:44 | 49.42193 | -9.31729 | 34017 ft | 480 kts | 294° |
| 2026-05-08 00:44 | 49.45066 | -9.40955 | 34010 ft | 480 kts | 294° |
| 2026-05-08 00:45 | 49.47924 | -9.50168 | 34009 ft | 480 kts | 294° |
| 2026-05-08 00:45 | 49.50799 | -9.59469 | 34016 ft | 480 kts | 294° |
| 2026-05-08 00:46 | 49.53651 | -9.68732 | 34012 ft | 480 kts | 294° |
| 2026-05-08 00:46 | 49.56500 | -9.78016 | 34011 ft | 481 kts | 294° |
| 2026-05-08 00:47 | 49.59339 | -9.87307 | 34004 ft | 481 kts | 294° |
| 2026-05-08 00:47 | 49.62174 | -9.96618 | 34017 ft | 480 kts | 294° |
| 2026-05-08 00:48 | 49.64993 | -10.05912 | 34002 ft | 478 kts | 294° |
| 2026-05-08 00:48 | 49.67805 | -10.15218 | 34005 ft | 477 kts | 294° |
| 2026-05-08 00:49 | 49.70586 | -10.24458 | 34007 ft | 475 kts | 294° |
| 2026-05-08 00:49 | 49.73371 | -10.33746 | 34022 ft | 475 kts | 294° |
| 2026-05-08 00:50 | 49.76126 | -10.42969 | 34002 ft | 475 kts | 294° |
| 2026-05-08 00:50 | 49.78891 | -10.52258 | 34001 ft | 473 kts | 295° |
| 2026-05-08 00:51 | 49.81622 | -10.61472 | 34012 ft | 471 kts | 295° |
| 2026-05-08 00:51 | 49.84346 | -10.70695 | 33999 ft | 470 kts | 294° |
| 2026-05-08 00:52 | 49.87050 | -10.79886 | 33998 ft | 469 kts | 294° |
| 2026-05-08 00:52 | 49.89738 | -10.89056 | 34005 ft | 469 kts | 294° |
| 2026-05-08 00:53 | 49.92422 | -10.98249 | 34004 ft | 469 kts | 295° |
| 2026-05-08 00:53 | 49.95108 | -11.07484 | 34000 ft | 466 kts | 295° |
| 2026-05-08 00:54 | 49.97754 | -11.16616 | 33997 ft | 464 kts | 295° |
| 2026-05-08 00:54 | 50.00388 | -11.25740 | 33993 ft | 462 kts | 295° |
| 2026-05-08 00:55 | 50.03000 | -11.34826 | 33990 ft | 461 kts | 295° |
| 2026-05-08 00:55 | 50.05617 | -11.43959 | 33996 ft | 461 kts | 295° |
| 2026-05-08 00:56 | 50.08218 | -11.53074 | 33998 ft | 460 kts | 295° |
| 2026-05-08 00:56 | 50.10796 | -11.62142 | 33996 ft | 459 kts | 295° |
| 2026-05-08 00:57 | 50.12945 | -11.69730 | 33992 ft | 458 kts | 295° |
| 2026-05-08 00:57 | 50.15503 | -11.78791 | 33991 ft | 457 kts | 294° |
| 2026-05-08 00:58 | 50.18064 | -11.87898 | 33991 ft | 457 kts | 294° |
| 2026-05-08 00:58 | 50.20607 | -11.96975 | 33992 ft | 457 kts | 294° |
| 2026-05-08 00:59 | 50.23149 | -12.06084 | 33988 ft | 457 kts | 294° |
| 2026-05-08 00:59 | 50.25670 | -12.15150 | 33999 ft | 457 kts | 294° |
| 2026-05-08 01:00 | 50.28200 | -12.24290 | 33989 ft | 458 kts | 293° |
| 2026-05-08 01:00 | 50.30714 | -12.33406 | 33987 ft | 458 kts | 293° |
| 2026-05-08 01:01 | 50.33222 | -12.42535 | 33987 ft | 458 kts | 293° |
| 2026-05-08 01:01 | 50.35736 | -12.51719 | 33986 ft | 458 kts | 293° |
| 2026-05-08 01:02 | 50.38226 | -12.60857 | 33984 ft | 457 kts | 293° |
| 2026-05-08 01:02 | 50.40711 | -12.70006 | 33982 ft | 456 kts | 293° |
| 2026-05-08 01:03 | 50.43194 | -12.79186 | 33985 ft | 455 kts | 293° |
| 2026-05-08 01:03 | 50.45646 | -12.88288 | 33984 ft | 455 kts | 292° |
| 2026-05-08 01:04 | 50.48110 | -12.97471 | 33984 ft | 454 kts | 292° |
| 2026-05-08 01:04 | 50.50543 | -13.06575 | 33986 ft | 454 kts | 292° |
| 2026-05-08 01:05 | 50.52988 | -13.15760 | 33984 ft | 453 kts | 292° |
| 2026-05-08 01:05 | 50.55406 | -13.24879 | 33979 ft | 452 kts | 292° |
| 2026-05-08 01:06 | 50.57801 | -13.33945 | 33986 ft | 451 kts | 292° |
| 2026-05-08 01:06 | 50.60205 | -13.43085 | 33982 ft | 450 kts | 292° |
| 2026-05-08 01:07 | 50.62583 | -13.52161 | 33978 ft | 450 kts | 292° |
| 2026-05-08 01:07 | 50.64954 | -13.61246 | 33981 ft | 450 kts | 292° |
| 2026-05-08 01:08 | 50.67323 | -13.70359 | 33984 ft | 448 kts | 291° |
| 2026-05-08 01:08 | 50.69672 | -13.79433 | 33982 ft | 447 kts | 291° |
| 2026-05-08 01:09 | 50.72020 | -13.88538 | 33975 ft | 446 kts | 291° |
| 2026-05-08 01:09 | 50.74352 | -13.97619 | 33986 ft | 446 kts | 291° |
| 2026-05-08 01:10 | 50.76667 | -14.06669 | 33982 ft | 445 kts | 291° |
| 2026-05-08 01:10 | 50.78980 | -14.15750 | 33976 ft | 445 kts | 290° |
| 2026-05-08 01:11 | 50.81272 | -14.24780 | 33989 ft | 444 kts | 290° |
| 2026-05-08 01:11 | 50.83554 | -14.33809 | 33970 ft | 443 kts | 290° |
| 2026-05-08 01:12 | 50.85827 | -14.42840 | 33974 ft | 441 kts | 290° |
| 2026-05-08 01:12 | 50.88094 | -14.51884 | 33975 ft | 440 kts | 290° |
| 2026-05-08 01:13 | 50.90342 | -14.60889 | 33988 ft | 440 kts | 289° |
| 2026-05-08 01:13 | 50.92577 | -14.69879 | 33978 ft | 440 kts | 289° |
| 2026-05-08 01:14 | 50.94810 | -14.78897 | 33977 ft | 440 kts | 289° |
| 2026-05-08 01:14 | 50.97047 | -14.87960 | 33975 ft | 441 kts | 289° |
| 2026-05-08 01:15 | 50.99090 | -14.97096 | 33970 ft | 440 kts | 282° |
| 2026-05-08 01:15 | 51.00143 | -15.06607 | 33981 ft | 438 kts | 274° |
| 2026-05-08 01:16 | 51.00385 | -15.16227 | 33982 ft | 438 kts | 271° |
| 2026-05-08 01:16 | 51.00539 | -15.25933 | 33972 ft | 439 kts | 271° |
| 2026-05-08 01:17 | 51.00698 | -15.35562 | 33982 ft | 438 kts | 271° |
| 2026-05-08 01:17 | 51.00865 | -15.45230 | 33975 ft | 436 kts | 271° |
| 2026-05-08 01:18 | 51.01029 | -15.54828 | 33993 ft | 436 kts | 270° |
| 2026-05-08 01:18 | 51.01185 | -15.64422 | 33978 ft | 435 kts | 270° |
| 2026-05-08 01:19 | 51.01334 | -15.73995 | 33980 ft | 434 kts | 270° |
| 2026-05-08 01:19 | 51.01475 | -15.83624 | 33981 ft | 433 kts | 270° |
| 2026-05-08 01:20 | 51.01607 | -15.93157 | 33977 ft | 432 kts | 270° |
| 2026-05-08 01:20 | 51.01730 | -16.02658 | 33977 ft | 432 kts | 270° |
| 2026-05-08 01:21 | 51.01846 | -16.12158 | 33977 ft | 431 kts | 270° |
| 2026-05-08 01:21 | 51.01955 | -16.21722 | 33978 ft | 431 kts | 270° |
| 2026-05-08 01:22 | 51.02055 | -16.31225 | 33991 ft | 431 kts | 269° |
| 2026-05-08 01:22 | 51.02148 | -16.40725 | 33980 ft | 431 kts | 269° |
| 2026-05-08 01:23 | 51.02233 | -16.50242 | 33982 ft | 431 kts | 269° |
| 2026-05-08 01:23 | 51.02311 | -16.59759 | 33979 ft | 430 kts | 269° |
| 2026-05-08 01:24 | 51.02380 | -16.69231 | 33979 ft | 430 kts | 269° |
| 2026-05-08 01:24 | 51.02442 | -16.78738 | 33987 ft | 430 kts | 269° |
| 2026-05-08 01:25 | 51.02495 | -16.88197 | 33976 ft | 430 kts | 269° |
| 2026-05-08 01:25 | 51.02542 | -16.97715 | 33979 ft | 430 kts | 269° |
| 2026-05-08 01:26 | 51.02581 | -17.07219 | 33981 ft | 430 kts | 269° |
| 2026-05-08 01:26 | 51.02612 | -17.16699 | 33989 ft | 432 kts | 268° |
| 2026-05-08 01:27 | 51.02635 | -17.26263 | 33979 ft | 433 kts | 268° |
| 2026-05-08 01:27 | 51.02651 | -17.35815 | 33981 ft | 434 kts | 268° |
| 2026-05-08 01:28 | 51.02659 | -17.45432 | 33982 ft | 435 kts | 268° |
| 2026-05-08 01:28 | 51.02659 | -17.55009 | 33980 ft | 435 kts | 268° |
| 2026-05-08 01:29 | 51.02651 | -17.64596 | 33988 ft | 435 kts | 268° |
| 2026-05-08 01:29 | 51.02636 | -17.74203 | 33973 ft | 436 kts | 268° |
| 2026-05-08 01:30 | 51.02612 | -17.83843 | 33977 ft | 435 kts | 268° |
| 2026-05-08 01:30 | 51.02581 | -17.93423 | 33981 ft | 435 kts | 268° |
| 2026-05-08 01:31 | 51.02542 | -18.03010 | 33980 ft | 434 kts | 268° |
| 2026-05-08 01:31 | 51.02494 | -18.12626 | 33983 ft | 434 kts | 268° |
| 2026-05-08 01:32 | 51.02439 | -18.22183 | 33979 ft | 435 kts | 268° |
| 2026-05-08 01:32 | 51.02376 | -18.31805 | 33982 ft | 437 kts | 268° |
| 2026-05-08 01:33 | 51.02305 | -18.41463 | 33981 ft | 438 kts | 268° |
| 2026-05-08 01:33 | 51.02226 | -18.51112 | 33979 ft | 438 kts | 268° |
| 2026-05-08 01:34 | 51.02138 | -18.60819 | 33981 ft | 438 kts | 268° |
| 2026-05-08 01:34 | 51.02044 | -18.70480 | 33974 ft | 440 kts | 268° |
| 2026-05-08 01:35 | 51.01939 | -18.80197 | 33974 ft | 443 kts | 268° |
| 2026-05-08 01:35 | 51.01826 | -18.90052 | 33982 ft | 446 kts | 268° |
| 2026-05-08 01:36 | 51.01705 | -18.99868 | 33990 ft | 448 kts | 268° |
| 2026-05-08 01:36 | 51.01574 | -19.09805 | 33974 ft | 449 kts | 267° |
| 2026-05-08 01:37 | 51.01435 | -19.19672 | 33969 ft | 449 kts | 267° |
| 2026-05-08 01:37 | 51.01289 | -19.29545 | 33961 ft | 448 kts | 267° |
| 2026-05-08 01:38 | 51.01134 | -19.39393 | 33979 ft | 447 kts | 267° |
| 2026-05-08 01:38 | 51.00970 | -19.49289 | 33979 ft | 447 kts | 267° |
| 2026-05-08 01:39 | 51.00798 | -19.59156 | 33974 ft | 447 kts | 267° |
| 2026-05-08 01:39 | 51.00619 | -19.68983 | 33966 ft | 447 kts | 267° |
| 2026-05-08 01:40 | 51.00430 | -19.78887 | 33965 ft | 447 kts | 267° |
| 2026-05-08 01:40 | 51.00235 | -19.88717 | 33974 ft | 447 kts | 267° |
| 2026-05-08 01:41 | 51.00029 | -19.98646 | 33962 ft | 447 kts | 266° |
| 2026-05-08 01:41 | 50.99572 | -20.08467 | 33964 ft | 447 kts | 264° |
| 2026-05-08 01:42 | 50.98994 | -20.18244 | 33971 ft | 447 kts | 264° |
| 2026-05-08 01:42 | 50.98409 | -20.28050 | 33952 ft | 448 kts | 264° |
| 2026-05-08 01:43 | 50.97823 | -20.37953 | 33964 ft | 451 kts | 264° |
| 2026-05-08 01:43 | 50.97233 | -20.47868 | 33964 ft | 453 kts | 264° |
| 2026-05-08 01:44 | 50.96635 | -20.57822 | 33977 ft | 455 kts | 264° |
| 2026-05-08 01:44 | 50.96023 | -20.67852 | 33961 ft | 456 kts | 264° |
| 2026-05-08 01:45 | 50.95406 | -20.77805 | 33958 ft | 456 kts | 264° |
| 2026-05-08 01:45 | 50.94777 | -20.87833 | 33971 ft | 454 kts | 264° |
| 2026-05-08 01:46 | 50.94145 | -20.97757 | 33965 ft | 453 kts | 264° |
| 2026-05-08 01:46 | 50.93504 | -21.07682 | 33964 ft | 453 kts | 264° |
| 2026-05-08 01:47 | 50.92857 | -21.17586 | 33980 ft | 453 kts | 264° |
| 2026-05-08 01:47 | 50.92197 | -21.27534 | 33965 ft | 453 kts | 264° |
| 2026-05-08 01:48 | 50.91195 | -21.42421 | 33964 ft | 456 kts | 264° |
| 2026-05-08 01:48 | 50.90510 | -21.52426 | 33982 ft | 456 kts | 264° |
| 2026-05-08 01:49 | 50.89817 | -21.62427 | 33967 ft | 456 kts | 264° |
| 2026-05-08 01:49 | 50.89117 | -21.72385 | 33982 ft | 456 kts | 264° |
| 2026-05-08 01:50 | 50.88410 | -21.82337 | 33987 ft | 457 kts | 264° |
| 2026-05-08 01:50 | 50.87690 | -21.92355 | 33991 ft | 458 kts | 264° |
| 2026-05-08 01:51 | 50.86960 | -22.02383 | 33977 ft | 458 kts | 263° |
| 2026-05-08 01:51 | 50.86224 | -22.12369 | 33984 ft | 458 kts | 263° |
| 2026-05-08 01:52 | 50.85480 | -22.22339 | 33992 ft | 458 kts | 264° |
| 2026-05-08 01:52 | 50.84723 | -22.32363 | 33995 ft | 458 kts | 264° |
| 2026-05-08 01:53 | 50.83962 | -22.42347 | 33993 ft | 459 kts | 264° |
| 2026-05-08 01:53 | 50.83184 | -22.52414 | 33979 ft | 460 kts | 264° |
| 2026-05-08 01:54 | 50.82403 | -22.62415 | 33964 ft | 460 kts | 264° |
| 2026-05-08 01:54 | 50.81613 | -22.72416 | 33987 ft | 461 kts | 264° |
| 2026-05-08 01:55 | 50.80808 | -22.82501 | 33993 ft | 461 kts | 264° |
| 2026-05-08 01:55 | 50.79998 | -22.92539 | 33995 ft | 462 kts | 264° |
| 2026-05-08 01:56 | 50.79174 | -23.02619 | 33992 ft | 461 kts | 264° |
| 2026-05-08 01:56 | 50.78348 | -23.12622 | 33980 ft | 461 kts | 264° |
| 2026-05-08 01:57 | 50.77508 | -23.22698 | 33992 ft | 462 kts | 264° |
| 2026-05-08 01:57 | 50.76663 | -23.32728 | 33999 ft | 462 kts | 264° |
| 2026-05-08 01:58 | 50.75805 | -23.42806 | 33995 ft | 463 kts | 264° |
| 2026-05-08 01:58 | 50.74938 | -23.52865 | 34004 ft | 464 kts | 264° |
| 2026-05-08 01:59 | 50.74062 | -23.62924 | 34000 ft | 464 kts | 265° |
| 2026-05-08 01:59 | 50.73172 | -23.73065 | 34001 ft | 465 kts | 265° |
| 2026-05-08 02:00 | 50.72278 | -23.83144 | 34005 ft | 465 kts | 265° |
| 2026-05-08 02:00 | 50.71369 | -23.93276 | 34003 ft | 466 kts | 264° |
| 2026-05-08 02:01 | 50.70457 | -24.03340 | 34004 ft | 466 kts | 264° |
| 2026-05-08 02:01 | 50.69528 | -24.13492 | 34005 ft | 466 kts | 265° |
| 2026-05-08 02:02 | 50.68599 | -24.23552 | 34012 ft | 466 kts | 265° |
| 2026-05-08 02:02 | 50.67659 | -24.33634 | 34016 ft | 466 kts | 265° |
| 2026-05-08 02:03 | 50.66706 | -24.43752 | 34017 ft | 465 kts | 265° |
| 2026-05-08 02:03 | 50.65753 | -24.53771 | 34019 ft | 464 kts | 265° |
| 2026-05-08 02:04 | 50.64783 | -24.63875 | 34021 ft | 463 kts | 265° |
| 2026-05-08 02:04 | 50.63815 | -24.73866 | 34024 ft | 463 kts | 265° |
| 2026-05-08 02:05 | 50.62837 | -24.83872 | 34025 ft | 463 kts | 265° |
| 2026-05-08 02:05 | 50.61848 | -24.93899 | 34022 ft | 463 kts | 265° |
| 2026-05-08 02:06 | 50.60856 | -25.03857 | 34026 ft | 462 kts | 266° |
| 2026-05-08 02:06 | 50.59848 | -25.13891 | 34035 ft | 463 kts | 266° |
| 2026-05-08 02:07 | 50.58838 | -25.23865 | 34035 ft | 463 kts | 266° |
| 2026-05-08 02:07 | 50.57817 | -25.33845 | 34037 ft | 463 kts | 266° |
| 2026-05-08 02:08 | 50.56783 | -25.43866 | 34038 ft | 464 kts | 266° |
| 2026-05-08 02:08 | 50.55744 | -25.53848 | 34031 ft | 463 kts | 266° |
| 2026-05-08 02:09 | 50.54698 | -25.63816 | 34044 ft | 464 kts | 266° |
| 2026-05-08 02:09 | 50.53637 | -25.73848 | 34047 ft | 464 kts | 266° |
| 2026-05-08 02:10 | 50.52571 | -25.83823 | 34051 ft | 464 kts | 266° |
| 2026-05-08 02:10 | 50.51498 | -25.93794 | 34027 ft | 464 kts | 267° |
| 2026-05-08 02:11 | 50.50411 | -26.03801 | 34047 ft | 463 kts | 267° |
| 2026-05-08 02:11 | 50.49325 | -26.13712 | 34059 ft | 463 kts | 267° |
| 2026-05-08 02:12 | 50.48410 | -26.22009 | 34056 ft | 463 kts | 267° |
| 2026-05-08 02:12 | 50.47118 | -26.33628 | 34056 ft | 462 kts | 267° |
| 2026-05-08 02:13 | 50.46004 | -26.43552 | 34061 ft | 462 kts | 268° |
| 2026-05-08 02:13 | 50.44887 | -26.53432 | 34053 ft | 462 kts | 268° |
| 2026-05-08 02:14 | 50.43758 | -26.63341 | 34071 ft | 462 kts | 267° |
| 2026-05-08 02:14 | 50.42809 | -26.71606 | 34075 ft | 462 kts | 267° |
| 2026-05-08 02:15 | 50.41658 | -26.81554 | 34075 ft | 462 kts | 267° |
| 2026-05-08 02:15 | 50.40503 | -26.91463 | 34068 ft | 462 kts | 268° |
| 2026-05-08 02:16 | 50.39343 | -27.01335 | 34069 ft | 462 kts | 268° |
| 2026-05-08 02:16 | 50.38174 | -27.11210 | 34074 ft | 463 kts | 268° |
| 2026-05-08 02:17 | 50.36990 | -27.21143 | 34076 ft | 463 kts | 268° |
| 2026-05-08 02:17 | 50.35803 | -27.31012 | 34043 ft | 463 kts | 268° |
| 2026-05-08 02:18 | 50.34602 | -27.40937 | 34071 ft | 463 kts | 268° |
| 2026-05-08 02:18 | 50.33393 | -27.50841 | 34073 ft | 463 kts | 268° |
| 2026-05-08 02:19 | 50.32179 | -27.60719 | 34080 ft | 464 kts | 267° |
| 2026-05-08 02:19 | 50.30954 | -27.70613 | 34084 ft | 464 kts | 267° |
| 2026-05-08 02:20 | 50.29720 | -27.80506 | 34074 ft | 464 kts | 267° |
| 2026-05-08 02:20 | 50.28475 | -27.90417 | 34079 ft | 465 kts | 267° |
| 2026-05-08 02:21 | 50.27215 | -28.00370 | 34084 ft | 466 kts | 267° |
| 2026-05-08 02:21 | 50.25954 | -28.10266 | 34087 ft | 467 kts | 267° |
| 2026-05-08 02:22 | 50.24669 | -28.20262 | 34088 ft | 467 kts | 267° |
| 2026-05-08 02:22 | 50.23393 | -28.30126 | 34094 ft | 466 kts | 267° |
| 2026-05-08 02:23 | 50.22098 | -28.40074 | 34100 ft | 468 kts | 267° |
| 2026-05-08 02:23 | 50.20788 | -28.50066 | 34098 ft | 468 kts | 266° |
| 2026-05-08 02:24 | 50.19478 | -28.59980 | 34098 ft | 469 kts | 266° |
| 2026-05-08 02:24 | 50.18147 | -28.69982 | 34062 ft | 470 kts | 266° |
| 2026-05-08 02:25 | 50.16814 | -28.79934 | 34096 ft | 470 kts | 266° |
| 2026-05-08 02:25 | 50.15470 | -28.89903 | 34112 ft | 472 kts | 266° |
| 2026-05-08 02:26 | 50.14114 | -28.99890 | 34109 ft | 473 kts | 266° |
| 2026-05-08 02:26 | 50.12736 | -29.09959 | 34109 ft | 473 kts | 266° |
| 2026-05-08 02:27 | 50.11360 | -29.19951 | 34109 ft | 473 kts | 266° |
| 2026-05-08 02:27 | 50.09967 | -29.29989 | 34114 ft | 473 kts | 266° |
| 2026-05-08 02:28 | 50.08574 | -29.39968 | 34114 ft | 473 kts | 266° |
| 2026-05-08 02:28 | 50.07167 | -29.49980 | 34113 ft | 472 kts | 266° |
| 2026-05-08 02:29 | 50.05761 | -29.59922 | 34089 ft | 472 kts | 266° |
| 2026-05-08 02:29 | 50.04336 | -29.69927 | 34121 ft | 472 kts | 266° |
| 2026-05-08 02:30 | 50.02914 | -29.79854 | 34130 ft | 473 kts | 265° |
| 2026-05-08 02:30 | 50.01473 | -29.89855 | 34128 ft | 474 kts | 265° |
| 2026-05-08 02:31 | 50.00064 | -29.99808 | 34128 ft | 471 kts | 268° |
| 2026-05-08 02:31 | 49.99372 | -30.09837 | 34135 ft | 464 kts | 274° |
| 2026-05-08 02:32 | 49.98850 | -30.19802 | 34135 ft | 464 kts | 273° |
| 2026-05-08 02:32 | 49.98300 | -30.29804 | 34135 ft | 465 kts | 273° |
| 2026-05-08 02:33 | 49.97723 | -30.39798 | 34134 ft | 465 kts | 273° |
| 2026-05-08 02:33 | 49.97131 | -30.49769 | 34142 ft | 465 kts | 273° |
| 2026-05-08 02:34 | 49.96526 | -30.59800 | 34134 ft | 465 kts | 272° |
| 2026-05-08 02:34 | 49.95920 | -30.69724 | 34147 ft | 465 kts | 272° |
| 2026-05-08 02:35 | 49.95297 | -30.79775 | 34157 ft | 466 kts | 272° |
| 2026-05-08 02:35 | 49.94670 | -30.89764 | 34156 ft | 466 kts | 272° |
| 2026-05-08 02:36 | 49.94034 | -30.99764 | 34152 ft | 466 kts | 272° |
| 2026-05-08 02:36 | 49.93390 | -31.09723 | 34152 ft | 466 kts | 272° |
| 2026-05-08 02:37 | 49.92737 | -31.19699 | 34161 ft | 465 kts | 272° |
| 2026-05-08 02:37 | 49.92072 | -31.29715 | 34165 ft | 464 kts | 272° |
| 2026-05-08 02:38 | 49.91405 | -31.39654 | 34170 ft | 463 kts | 272° |
| 2026-05-08 02:38 | 49.90731 | -31.49561 | 34170 ft | 463 kts | 272° |
| 2026-05-08 02:39 | 49.90049 | -31.59451 | 34176 ft | 462 kts | 272° |
| 2026-05-08 02:39 | 49.89361 | -31.69317 | 34177 ft | 462 kts | 271° |
| 2026-05-08 02:40 | 49.88660 | -31.79248 | 34181 ft | 462 kts | 271° |
| 2026-05-08 02:40 | 49.87954 | -31.89123 | 34181 ft | 463 kts | 271° |
| 2026-05-08 02:41 | 49.87236 | -31.99045 | 34189 ft | 463 kts | 271° |
| 2026-05-08 02:41 | 49.86508 | -32.08968 | 34187 ft | 463 kts | 271° |
| 2026-05-08 02:42 | 49.85776 | -32.18844 | 34194 ft | 464 kts | 271° |
| 2026-05-08 02:42 | 49.85026 | -32.28842 | 34186 ft | 464 kts | 271° |
| 2026-05-08 02:43 | 49.84275 | -32.38728 | 34191 ft | 464 kts | 271° |
| 2026-05-08 02:43 | 49.83513 | -32.48637 | 34191 ft | 464 kts | 271° |
| 2026-05-08 02:44 | 49.82743 | -32.58550 | 34193 ft | 463 kts | 271° |
| 2026-05-08 02:44 | 49.81967 | -32.68435 | 34198 ft | 463 kts | 271° |
| 2026-05-08 02:45 | 49.81183 | -32.78311 | 34199 ft | 463 kts | 271° |
| 2026-05-08 02:45 | 49.80384 | -32.88262 | 34206 ft | 464 kts | 271° |
| 2026-05-08 02:46 | 49.79580 | -32.98173 | 34168 ft | 464 kts | 271° |
| 2026-05-08 02:46 | 49.78769 | -33.08054 | 34198 ft | 464 kts | 271° |
| 2026-05-08 02:47 | 49.77950 | -33.17934 | 34205 ft | 465 kts | 271° |
| 2026-05-08 02:47 | 49.77115 | -33.27898 | 34203 ft | 466 kts | 271° |
| 2026-05-08 02:48 | 49.76276 | -33.37802 | 34197 ft | 467 kts | 271° |
| 2026-05-08 02:48 | 49.75428 | -33.47708 | 34175 ft | 467 kts | 270° |
| 2026-05-08 02:49 | 49.74566 | -33.57687 | 34207 ft | 467 kts | 270° |
| 2026-05-08 02:49 | 49.73698 | -33.67620 | 34215 ft | 468 kts | 270° |
| 2026-05-08 02:50 | 49.72820 | -33.77573 | 34212 ft | 469 kts | 270° |
| 2026-05-08 02:50 | 49.71927 | -33.87588 | 34218 ft | 469 kts | 270° |
| 2026-05-08 02:51 | 49.71031 | -33.97541 | 34217 ft | 469 kts | 270° |
| 2026-05-08 02:51 | 49.70125 | -34.07497 | 34217 ft | 469 kts | 270° |
| 2026-05-08 02:52 | 49.69206 | -34.17509 | 34218 ft | 469 kts | 270° |
| 2026-05-08 02:52 | 49.68286 | -34.27432 | 34230 ft | 469 kts | 270° |
| 2026-05-08 02:53 | 49.67351 | -34.37427 | 34221 ft | 469 kts | 270° |
| 2026-05-08 02:53 | 49.66412 | -34.47357 | 34215 ft | 468 kts | 270° |
| 2026-05-08 02:54 | 49.65467 | -34.57270 | 34221 ft | 469 kts | 270° |
| 2026-05-08 02:54 | 49.64507 | -34.67245 | 34231 ft | 470 kts | 269° |
| 2026-05-08 02:55 | 49.63054 | -34.82169 | 34238 ft | 471 kts | 269° |
| 2026-05-08 02:56 | 49.62066 | -34.92190 | 34209 ft | 471 kts | 269° |
| 2026-05-08 02:56 | 49.61076 | -35.02153 | 34249 ft | 472 kts | 269° |
| 2026-05-08 02:57 | 49.60075 | -35.12129 | 34236 ft | 473 kts | 269° |
| 2026-05-08 02:57 | 49.59063 | -35.22123 | 34238 ft | 473 kts | 269° |
| 2026-05-08 02:58 | 49.58035 | -35.32185 | 34251 ft | 473 kts | 269° |
| 2026-05-08 02:58 | 49.57007 | -35.42167 | 34227 ft | 473 kts | 269° |
| 2026-05-08 02:59 | 49.55968 | -35.52161 | 34241 ft | 474 kts | 268° |
| 2026-05-08 02:59 | 49.54919 | -35.62167 | 34244 ft | 474 kts | 268° |
| 2026-05-08 03:00 | 49.53863 | -35.72152 | 34254 ft | 474 kts | 268° |
| 2026-05-08 03:00 | 49.52791 | -35.82197 | 34254 ft | 474 kts | 268° |
| 2026-05-08 03:01 | 49.51716 | -35.92191 | 34253 ft | 473 kts | 268° |
| 2026-05-08 03:01 | 49.50638 | -36.02129 | 34265 ft | 474 kts | 268° |
| 2026-05-08 03:02 | 49.49543 | -36.12145 | 34266 ft | 474 kts | 268° |
| 2026-05-08 03:02 | 49.48443 | -36.22116 | 34266 ft | 474 kts | 268° |
| 2026-05-08 03:03 | 49.47328 | -36.32144 | 34270 ft | 474 kts | 268° |
| 2026-05-08 03:03 | 49.46209 | -36.42117 | 34265 ft | 474 kts | 267° |
| 2026-05-08 03:04 | 49.45079 | -36.52120 | 34274 ft | 475 kts | 267° |
| 2026-05-08 03:04 | 49.43944 | -36.62081 | 34273 ft | 475 kts | 267° |
| 2026-05-08 03:05 | 49.42797 | -36.72061 | 34267 ft | 475 kts | 266° |
| 2026-05-08 03:05 | 49.41641 | -36.82046 | 34245 ft | 474 kts | 266° |
| 2026-05-08 03:06 | 49.40483 | -36.91961 | 34277 ft | 473 kts | 266° |
| 2026-05-08 03:06 | 49.39310 | -37.01941 | 34287 ft | 473 kts | 266° |
| 2026-05-08 03:07 | 49.38139 | -37.11823 | 34296 ft | 473 kts | 266° |
| 2026-05-08 03:07 | 49.36950 | -37.21787 | 34295 ft | 473 kts | 266° |
| 2026-05-08 03:08 | 49.35752 | -37.31739 | 34274 ft | 474 kts | 265° |
| 2026-05-08 03:08 | 49.34547 | -37.41678 | 34288 ft | 474 kts | 265° |
| 2026-05-08 03:09 | 49.33338 | -37.51573 | 34292 ft | 475 kts | 265° |
| 2026-05-08 03:09 | 49.32110 | -37.61555 | 34289 ft | 476 kts | 265° |
| 2026-05-08 03:10 | 49.30876 | -37.71504 | 34289 ft | 476 kts | 265° |
| 2026-05-08 03:10 | 49.29635 | -37.81438 | 34283 ft | 475 kts | 264° |
| 2026-05-08 03:11 | 49.28387 | -37.91348 | 34292 ft | 476 kts | 264° |
| 2026-05-08 03:11 | 49.27123 | -38.01316 | 34292 ft | 476 kts | 264° |
| 2026-05-08 03:12 | 49.25855 | -38.11244 | 34289 ft | 476 kts | 264° |
| 2026-05-08 03:12 | 49.24576 | -38.21189 | 34291 ft | 476 kts | 264° |
| 2026-05-08 03:13 | 49.23295 | -38.31081 | 34283 ft | 476 kts | 264° |
| 2026-05-08 03:13 | 49.21995 | -38.41039 | 34300 ft | 476 kts | 264° |
| 2026-05-08 03:14 | 49.20694 | -38.50940 | 34305 ft | 476 kts | 264° |
| 2026-05-08 03:14 | 49.19385 | -38.60840 | 34301 ft | 476 kts | 264° |
| 2026-05-08 03:15 | 49.18061 | -38.70772 | 34292 ft | 476 kts | 264° |
| 2026-05-08 03:15 | 49.16735 | -38.80656 | 34304 ft | 476 kts | 263° |
| 2026-05-08 03:16 | 49.15399 | -38.90541 | 34301 ft | 476 kts | 263° |
| 2026-05-08 03:16 | 49.14048 | -39.00479 | 34298 ft | 476 kts | 263° |
| 2026-05-08 03:17 | 49.12696 | -39.10348 | 34296 ft | 476 kts | 263° |
| 2026-05-08 03:17 | 49.11338 | -39.20202 | 34291 ft | 476 kts | 263° |
| 2026-05-08 03:18 | 49.09963 | -39.30102 | 34299 ft | 477 kts | 263° |
| 2026-05-08 03:18 | 49.08577 | -39.40020 | 34299 ft | 477 kts | 263° |
| 2026-05-08 03:19 | 49.07190 | -39.49881 | 34297 ft | 478 kts | 263° |
| 2026-05-08 03:19 | 49.05785 | -39.59804 | 34296 ft | 478 kts | 263° |
| 2026-05-08 03:20 | 49.04371 | -39.69725 | 34292 ft | 479 kts | 262° |
| 2026-05-08 03:20 | 49.02956 | -39.79590 | 34298 ft | 479 kts | 262° |
| 2026-05-08 03:21 | 49.01518 | -39.89558 | 34293 ft | 480 kts | 262° |
| 2026-05-08 03:21 | 49.00105 | -39.99452 | 34294 ft | 479 kts | 264° |
| 2026-05-08 03:22 | 48.99385 | -40.09472 | 34301 ft | 474 kts | 270° |
| 2026-05-08 03:22 | 48.98868 | -40.19460 | 34292 ft | 475 kts | 269° |
| 2026-05-08 03:23 | 48.98323 | -40.29492 | 34294 ft | 475 kts | 269° |
| 2026-05-08 03:23 | 48.97751 | -40.39468 | 34294 ft | 476 kts | 269° |
| 2026-05-08 03:24 | 48.97154 | -40.49546 | 34294 ft | 476 kts | 269° |
| 2026-05-08 03:24 | 48.96554 | -40.59528 | 34294 ft | 476 kts | 269° |
| 2026-05-08 03:25 | 48.95940 | -40.69596 | 34285 ft | 477 kts | 268° |
| 2026-05-08 03:25 | 48.95321 | -40.79616 | 34296 ft | 477 kts | 268° |
| 2026-05-08 03:26 | 48.94797 | -40.87986 | 34290 ft | 477 kts | 268° |
| 2026-05-08 03:26 | 48.94054 | -40.99696 | 34291 ft | 478 kts | 268° |
| 2026-05-08 03:27 | 48.93515 | -41.08074 | 34294 ft | 478 kts | 268° |
| 2026-05-08 03:27 | 48.92858 | -41.18153 | 34281 ft | 478 kts | 267° |
| 2026-05-08 03:28 | 48.92195 | -41.28186 | 34295 ft | 478 kts | 267° |
| 2026-05-08 03:28 | 48.91523 | -41.38235 | 34294 ft | 479 kts | 267° |
| 2026-05-08 03:29 | 48.90838 | -41.48332 | 34287 ft | 479 kts | 267° |
| 2026-05-08 03:29 | 48.90150 | -41.58349 | 34294 ft | 480 kts | 267° |
| 2026-05-08 03:30 | 48.89091 | -41.73515 | 34291 ft | 480 kts | 266° |
| 2026-05-08 03:31 | 48.87652 | -41.93665 | 34300 ft | 482 kts | 266° |
| 2026-05-08 03:32 | 48.86544 | -42.08859 | 34297 ft | 482 kts | 266° |
| 2026-05-08 03:32 | 48.85797 | -42.18935 | 34284 ft | 482 kts | 266° |
| 2026-05-08 03:33 | 48.85035 | -42.29109 | 34293 ft | 484 kts | 266° |
| 2026-05-08 03:33 | 48.84268 | -42.39216 | 34298 ft | 485 kts | 266° |
| 2026-05-08 03:34 | 48.83484 | -42.49423 | 34301 ft | 485 kts | 266° |
| 2026-05-08 03:34 | 48.82698 | -42.59546 | 34298 ft | 486 kts | 266° |
| 2026-05-08 03:35 | 48.81895 | -42.69760 | 34298 ft | 486 kts | 265° |
| 2026-05-08 03:35 | 48.81090 | -42.79885 | 34296 ft | 486 kts | 265° |
| 2026-05-08 03:36 | 48.80273 | -42.90059 | 34301 ft | 487 kts | 265° |
| 2026-05-08 03:36 | 48.79442 | -43.00270 | 34305 ft | 487 kts | 265° |
| 2026-05-08 03:37 | 48.78607 | -43.10430 | 34305 ft | 486 kts | 265° |
| 2026-05-08 03:37 | 48.77761 | -43.20610 | 34298 ft | 485 kts | 265° |
| 2026-05-08 03:38 | 48.76912 | -43.30710 | 34294 ft | 485 kts | 265° |
| 2026-05-08 03:38 | 48.76050 | -43.40862 | 34306 ft | 485 kts | 265° |
| 2026-05-08 03:39 | 48.75179 | -43.51007 | 34305 ft | 486 kts | 265° |
| 2026-05-08 03:39 | 48.74300 | -43.61145 | 34305 ft | 486 kts | 265° |
| 2026-05-08 03:40 | 48.73413 | -43.71264 | 34305 ft | 487 kts | 265° |
| 2026-05-08 03:40 | 48.72509 | -43.81481 | 34305 ft | 487 kts | 265° |
| 2026-05-08 03:41 | 48.71605 | -43.91572 | 34300 ft | 483 kts | 265° |
| 2026-05-08 03:41 | 48.70694 | -44.01648 | 34308 ft | 480 kts | 265° |
| 2026-05-08 03:42 | 48.69784 | -44.11618 | 34305 ft | 480 kts | 264° |
| 2026-05-08 03:42 | 48.68864 | -44.21605 | 34309 ft | 480 kts | 264° |
| 2026-05-08 03:43 | 48.67931 | -44.31641 | 34306 ft | 481 kts | 264° |
| 2026-05-08 03:43 | 48.66991 | -44.41645 | 34316 ft | 483 kts | 264° |
| 2026-05-08 03:44 | 48.66035 | -44.51717 | 34325 ft | 484 kts | 264° |
| 2026-05-08 03:44 | 48.65073 | -44.61764 | 34325 ft | 484 kts | 264° |
| 2026-05-08 03:45 | 48.64096 | -44.71861 | 34322 ft | 484 kts | 264° |
| 2026-05-08 03:45 | 48.63118 | -44.81884 | 34305 ft | 482 kts | 264° |
| 2026-05-08 03:46 | 48.62133 | -44.91875 | 34321 ft | 481 kts | 264° |
| 2026-05-08 03:46 | 48.61143 | -45.01843 | 34322 ft | 481 kts | 264° |
| 2026-05-08 03:47 | 48.60138 | -45.11857 | 34319 ft | 480 kts | 264° |
| 2026-05-08 03:47 | 48.59131 | -45.21809 | 34323 ft | 480 kts | 264° |
| 2026-05-08 03:48 | 48.58114 | -45.31766 | 34318 ft | 481 kts | 263° |
| 2026-05-08 03:48 | 48.57089 | -45.41712 | 34325 ft | 480 kts | 263° |
| 2026-05-08 03:49 | 48.56052 | -45.51690 | 34312 ft | 479 kts | 263° |
| 2026-05-08 03:49 | 48.55015 | -45.61588 | 34315 ft | 478 kts | 263° |
| 2026-05-08 03:50 | 48.53965 | -45.71512 | 34314 ft | 477 kts | 263° |
| 2026-05-08 03:50 | 48.52915 | -45.81362 | 34306 ft | 477 kts | 263° |
| 2026-05-08 03:51 | 48.51852 | -45.91254 | 34323 ft | 477 kts | 263° |
| 2026-05-08 03:51 | 48.50784 | -46.01100 | 34321 ft | 478 kts | 263° |
| 2026-05-08 03:52 | 48.49699 | -46.11021 | 34330 ft | 478 kts | 263° |
| 2026-05-08 03:52 | 48.48611 | -46.20889 | 34322 ft | 478 kts | 262° |
| 2026-05-08 03:53 | 48.47518 | -46.30723 | 34318 ft | 477 kts | 262° |
| 2026-05-08 03:53 | 48.46414 | -46.40580 | 34324 ft | 477 kts | 262° |
| 2026-05-08 03:54 | 48.45304 | -46.50407 | 34324 ft | 476 kts | 262° |
| 2026-05-08 03:54 | 48.44188 | -46.60214 | 34322 ft | 476 kts | 262° |
| 2026-05-08 03:55 | 48.43063 | -46.70015 | 34325 ft | 476 kts | 262° |
| 2026-05-08 03:55 | 48.41925 | -46.79856 | 34311 ft | 476 kts | 262° |
| 2026-05-08 03:56 | 48.40781 | -46.89678 | 34323 ft | 476 kts | 262° |
| 2026-05-08 03:56 | 48.39636 | -46.99420 | 34323 ft | 476 kts | 261° |
| 2026-05-08 03:57 | 48.38471 | -47.09263 | 34321 ft | 476 kts | 261° |
| 2026-05-08 03:57 | 48.37307 | -47.19027 | 34320 ft | 476 kts | 261° |
| 2026-05-08 03:58 | 48.36132 | -47.28805 | 34320 ft | 476 kts | 261° |
| 2026-05-08 03:58 | 48.34944 | -47.38616 | 34323 ft | 476 kts | 261° |
| 2026-05-08 03:59 | 48.33754 | -47.48374 | 34327 ft | 476 kts | 261° |
| 2026-05-08 03:59 | 48.32548 | -47.58194 | 34329 ft | 476 kts | 261° |
| 2026-05-08 04:00 | 48.31342 | -47.67933 | 34327 ft | 475 kts | 261° |
| 2026-05-08 04:00 | 48.30132 | -47.77638 | 34324 ft | 474 kts | 261° |
| 2026-05-08 04:01 | 48.28909 | -47.87373 | 34319 ft | 473 kts | 261° |
| 2026-05-08 04:01 | 48.27690 | -47.97015 | 34328 ft | 472 kts | 260° |
| 2026-05-08 04:02 | 48.26452 | -48.06729 | 34327 ft | 472 kts | 260° |
| 2026-05-08 04:02 | 48.25210 | -48.16414 | 34324 ft | 473 kts | 260° |
| 2026-05-08 04:03 | 48.23964 | -48.26065 | 34323 ft | 473 kts | 260° |
| 2026-05-08 04:03 | 48.22068 | -48.40611 | 34327 ft | 473 kts | 259° |
| 2026-05-08 04:04 | 48.20803 | -48.50243 | 34321 ft | 470 kts | 259° |
| 2026-05-08 04:04 | 48.19531 | -48.59850 | 34313 ft | 468 kts | 259° |
| 2026-05-08 04:05 | 48.18265 | -48.69350 | 34313 ft | 468 kts | 259° |
| 2026-05-08 04:05 | 48.16981 | -48.78926 | 34319 ft | 471 kts | 258° |
| 2026-05-08 04:06 | 48.15680 | -48.88561 | 34318 ft | 472 kts | 258° |
| 2026-05-08 04:06 | 48.14374 | -48.98171 | 34307 ft | 469 kts | 258° |
| 2026-05-08 04:07 | 48.13070 | -49.07697 | 34315 ft | 468 kts | 258° |
| 2026-05-08 04:07 | 48.11754 | -49.17258 | 34318 ft | 468 kts | 258° |
| 2026-05-08 04:08 | 48.10437 | -49.26752 | 34307 ft | 468 kts | 258° |
| 2026-05-08 04:08 | 48.09115 | -49.36230 | 34314 ft | 467 kts | 258° |
| 2026-05-08 04:09 | 48.07783 | -49.45717 | 34308 ft | 466 kts | 258° |
| 2026-05-08 04:09 | 48.06437 | -49.55246 | 34301 ft | 466 kts | 258° |
| 2026-05-08 04:10 | 48.05091 | -49.64709 | 34304 ft | 467 kts | 257° |
| 2026-05-08 04:10 | 48.03742 | -49.74139 | 34300 ft | 467 kts | 257° |
| 2026-05-08 04:11 | 48.02369 | -49.83677 | 34299 ft | 467 kts | 257° |
| 2026-05-08 04:11 | 48.01008 | -49.93080 | 34303 ft | 466 kts | 257° |
| 2026-05-08 04:12 | 47.99468 | -50.02510 | 34289 ft | 465 kts | 251° |
| 2026-05-08 04:12 | 47.97294 | -50.11507 | 34295 ft | 463 kts | 249° |
| 2026-05-08 04:13 | 47.95074 | -50.20553 | 34293 ft | 463 kts | 249° |
| 2026-05-08 04:13 | 47.92880 | -50.29560 | 34291 ft | 463 kts | 249° |
| 2026-05-08 04:14 | 47.90698 | -50.38545 | 34287 ft | 463 kts | 249° |
| 2026-05-08 04:14 | 47.88499 | -50.47576 | 34283 ft | 463 kts | 249° |
| 2026-05-08 04:15 | 47.86294 | -50.56594 | 34284 ft | 463 kts | 249° |
| 2026-05-08 04:15 | 47.84085 | -50.65586 | 34279 ft | 463 kts | 249° |
| 2026-05-08 04:16 | 47.81874 | -50.74548 | 34281 ft | 463 kts | 249° |
| 2026-05-08 04:16 | 47.79642 | -50.83563 | 34277 ft | 462 kts | 249° |
| 2026-05-08 04:17 | 47.77425 | -50.92482 | 34266 ft | 460 kts | 249° |
| 2026-05-08 04:17 | 47.75217 | -51.01329 | 34272 ft | 458 kts | 249° |
| 2026-05-08 04:18 | 47.72991 | -51.10209 | 34273 ft | 456 kts | 248° |
| 2026-05-08 04:18 | 47.70781 | -51.18994 | 34270 ft | 455 kts | 248° |
| 2026-05-08 04:19 | 47.68566 | -51.27766 | 34264 ft | 455 kts | 248° |
| 2026-05-08 04:19 | 47.66332 | -51.36577 | 34262 ft | 455 kts | 248° |
| 2026-05-08 04:20 | 47.64100 | -51.45347 | 34262 ft | 456 kts | 248° |
| 2026-05-08 04:20 | 47.61863 | -51.54105 | 34257 ft | 456 kts | 248° |
| 2026-05-08 04:21 | 47.59602 | -51.62922 | 34254 ft | 456 kts | 248° |
| 2026-05-08 04:21 | 47.57354 | -51.71656 | 34262 ft | 455 kts | 247° |
| 2026-05-08 04:22 | 47.55100 | -51.80382 | 34252 ft | 452 kts | 247° |
| 2026-05-08 04:22 | 47.52868 | -51.88992 | 34239 ft | 450 kts | 247° |
| 2026-05-08 04:23 | 47.50901 | -51.97777 | 34245 ft | 450 kts | 256° |
| 2026-05-08 04:23 | 47.50119 | -52.06965 | 34253 ft | 453 kts | 265° |
| 2026-05-08 04:24 | 47.50285 | -52.16292 | 34254 ft | 455 kts | 269° |
| 2026-05-08 04:24 | 47.50542 | -52.25650 | 34251 ft | 456 kts | 269° |
| 2026-05-08 04:25 | 47.50775 | -52.35012 | 34260 ft | 457 kts | 268° |
| 2026-05-08 04:25 | 47.50979 | -52.44432 | 34253 ft | 458 kts | 268° |
| 2026-05-08 04:26 | 47.51166 | -52.53832 | 34210 ft | 457 kts | 268° |
| 2026-05-08 04:26 | 47.51345 | -52.63208 | 34215 ft | 457 kts | 268° |
| 2026-05-08 04:27 | 47.51516 | -52.72610 | 34207 ft | 456 kts | 268° |
| 2026-05-08 04:27 | 47.51679 | -52.81981 | 34209 ft | 455 kts | 268° |
| 2026-05-08 04:28 | 47.51834 | -52.91311 | 34217 ft | 455 kts | 267° |
| 2026-05-08 04:28 | 47.51983 | -53.00690 | 34217 ft | 455 kts | 267° |
| 2026-05-08 04:29 | 47.52123 | -53.10022 | 34209 ft | 455 kts | 267° |
| 2026-05-08 04:29 | 47.52256 | -53.19348 | 34205 ft | 454 kts | 267° |
| 2026-05-08 04:30 | 47.52382 | -53.28718 | 34212 ft | 454 kts | 267° |
| 2026-05-08 04:30 | 47.52498 | -53.37987 | 34217 ft | 454 kts | 266° |
| 2026-05-08 04:31 | 47.52608 | -53.47290 | 34205 ft | 452 kts | 266° |
| 2026-05-08 04:31 | 47.52711 | -53.56607 | 34198 ft | 450 kts | 266° |
| 2026-05-08 04:32 | 47.52806 | -53.65858 | 34203 ft | 449 kts | 266° |
| 2026-05-08 04:32 | 47.52892 | -53.75093 | 34204 ft | 449 kts | 266° |
| 2026-05-08 04:33 | 47.52970 | -53.84282 | 34198 ft | 449 kts | 266° |
| 2026-05-08 04:33 | 47.53041 | -53.93518 | 34201 ft | 449 kts | 265° |
| 2026-05-08 04:34 | 47.53105 | -54.02768 | 34201 ft | 449 kts | 265° |
| 2026-05-08 04:34 | 47.53162 | -54.12016 | 34202 ft | 450 kts | 265° |
| 2026-05-08 04:35 | 47.53211 | -54.21231 | 34201 ft | 450 kts | 265° |
| 2026-05-08 04:35 | 47.53254 | -54.30482 | 34194 ft | 450 kts | 265° |
| 2026-05-08 04:36 | 47.53284 | -54.38225 | 34218 ft | 450 kts | 265° |
| 2026-05-08 04:36 | 47.53316 | -54.49012 | 34198 ft | 450 kts | 265° |
| 2026-05-08 04:37 | 47.53333 | -54.56720 | 34195 ft | 450 kts | 265° |
| 2026-05-08 04:37 | 47.53347 | -54.65999 | 34191 ft | 449 kts | 265° |
| 2026-05-08 04:38 | 47.53353 | -54.75226 | 34197 ft | 449 kts | 265° |
| 2026-05-08 04:38 | 47.53352 | -54.84427 | 34183 ft | 449 kts | 265° |
| 2026-05-08 04:39 | 47.53343 | -54.93697 | 34196 ft | 450 kts | 265° |
| 2026-05-08 04:39 | 47.53326 | -55.02934 | 34166 ft | 450 kts | 265° |
| 2026-05-08 04:40 | 47.53302 | -55.12206 | 34163 ft | 451 kts | 265° |
| 2026-05-08 04:40 | 47.53272 | -55.21457 | 34131 ft | 451 kts | 265° |
| 2026-05-08 04:41 | 47.53235 | -55.30731 | 34118 ft | 451 kts | 265° |
| 2026-05-08 04:41 | 47.53187 | -55.40022 | 34124 ft | 451 kts | 265° |
| 2026-05-08 04:42 | 47.53132 | -55.49356 | 34105 ft | 452 kts | 265° |
| 2026-05-08 04:42 | 47.53072 | -55.58610 | 34044 ft | 452 kts | 264° |
| 2026-05-08 04:43 | 47.53003 | -55.67913 | 34049 ft | 452 kts | 264° |
| 2026-05-08 04:43 | 47.52927 | -55.77219 | 34049 ft | 452 kts | 264° |
| 2026-05-08 04:44 | 47.52844 | -55.86558 | 34026 ft | 452 kts | 264° |
| 2026-05-08 04:44 | 47.52751 | -55.95838 | 34036 ft | 453 kts | 264° |
| 2026-05-08 04:45 | 47.52652 | -56.05133 | 34033 ft | 453 kts | 264° |
| 2026-05-08 04:45 | 47.52546 | -56.14428 | 34059 ft | 452 kts | 264° |
| 2026-05-08 04:46 | 47.52434 | -56.23722 | 34046 ft | 449 kts | 264° |
| 2026-05-08 04:46 | 47.52315 | -56.32947 | 34032 ft | 447 kts | 264° |
| 2026-05-08 04:47 | 47.52189 | -56.42051 | 34088 ft | 444 kts | 264° |
| 2026-05-08 04:47 | 47.52054 | -56.51195 | 34052 ft | 443 kts | 264° |
| 2026-05-08 04:48 | 47.51914 | -56.60256 | 34042 ft | 441 kts | 264° |
| 2026-05-08 04:48 | 47.51767 | -56.69316 | 34057 ft | 441 kts | 264° |
| 2026-05-08 04:49 | 47.51612 | -56.78411 | 34058 ft | 441 kts | 264° |
| 2026-05-08 04:49 | 47.51450 | -56.87447 | 34058 ft | 441 kts | 263° |
| 2026-05-08 04:50 | 47.51281 | -56.96518 | 34058 ft | 441 kts | 263° |
| 2026-05-08 04:50 | 47.51107 | -57.05557 | 34050 ft | 439 kts | 263° |
| 2026-05-08 04:51 | 47.50926 | -57.14554 | 34049 ft | 437 kts | 263° |
| 2026-05-08 04:51 | 47.50739 | -57.23490 | 34023 ft | 436 kts | 263° |
| 2026-05-08 04:52 | 47.50544 | -57.32468 | 34025 ft | 436 kts | 263° |
| 2026-05-08 04:52 | 47.50343 | -57.41380 | 34025 ft | 436 kts | 263° |
| 2026-05-08 04:53 | 47.50134 | -57.50349 | 34014 ft | 435 kts | 263° |
| 2026-05-08 04:53 | 47.49919 | -57.59272 | 34020 ft | 435 kts | 263° |
| 2026-05-08 04:54 | 47.49697 | -57.68222 | 34002 ft | 434 kts | 263° |
| 2026-05-08 04:54 | 47.49469 | -57.77107 | 33996 ft | 433 kts | 263° |
| 2026-05-08 04:55 | 47.49234 | -57.86019 | 33987 ft | 433 kts | 262° |
| 2026-05-08 04:55 | 47.48994 | -57.94867 | 34030 ft | 432 kts | 263° |
| 2026-05-08 04:56 | 47.48744 | -58.03785 | 33991 ft | 433 kts | 263° |
| 2026-05-08 04:56 | 47.48488 | -58.12684 | 33984 ft | 434 kts | 263° |
| 2026-05-08 04:57 | 47.48226 | -58.21562 | 33971 ft | 434 kts | 263° |
| 2026-05-08 04:57 | 47.47956 | -58.30477 | 33989 ft | 430 kts | 263° |
| 2026-05-08 04:58 | 47.47693 | -58.39122 | 33961 ft | 419 kts | 263° |
| 2026-05-08 04:58 | 47.47417 | -58.47747 | 33989 ft | 419 kts | 263° |
| 2026-05-08 04:59 | 47.47137 | -58.56309 | 33957 ft | 416 kts | 263° |
| 2026-05-08 04:59 | 47.46855 | -58.64769 | 33945 ft | 413 kts | 262° |
| 2026-05-08 05:00 | 47.46565 | -58.73277 | 33940 ft | 411 kts | 262° |
| 2026-05-08 05:00 | 47.46273 | -58.81654 | 33938 ft | 410 kts | 262° |
| 2026-05-08 05:01 | 47.45973 | -58.90090 | 33926 ft | 411 kts | 262° |
| 2026-05-08 05:01 | 47.45668 | -58.98497 | 33926 ft | 411 kts | 262° |
| 2026-05-08 05:02 | 47.45358 | -59.06899 | 33902 ft | 411 kts | 262° |
| 2026-05-08 05:02 | 47.45040 | -59.15326 | 33900 ft | 410 kts | 262° |
| 2026-05-08 05:03 | 47.44718 | -59.23710 | 33904 ft | 409 kts | 262° |
| 2026-05-08 05:03 | 47.44387 | -59.32149 | 33876 ft | 409 kts | 262° |
| 2026-05-08 05:04 | 47.44054 | -59.40492 | 33875 ft | 409 kts | 262° |
| 2026-05-08 05:04 | 47.43715 | -59.48837 | 33873 ft | 409 kts | 262° |
| 2026-05-08 05:05 | 47.43369 | -59.57213 | 33866 ft | 407 kts | 262° |
| 2026-05-08 05:05 | 47.43019 | -59.65528 | 33849 ft | 406 kts | 262° |
| 2026-05-08 05:06 | 47.42661 | -59.73884 | 33836 ft | 405 kts | 262° |
| 2026-05-08 05:06 | 47.42301 | -59.82143 | 33832 ft | 404 kts | 262° |
| 2026-05-08 05:07 | 47.41935 | -59.90411 | 33804 ft | 403 kts | 262° |
| 2026-05-08 05:07 | 47.41564 | -59.98651 | 33839 ft | 403 kts | 261° |
| 2026-05-08 05:08 | 47.41187 | -60.06879 | 33797 ft | 403 kts | 261° |
| 2026-05-08 05:08 | 47.40802 | -60.15151 | 33781 ft | 403 kts | 261° |
| 2026-05-08 05:09 | 47.40413 | -60.23392 | 33781 ft | 403 kts | 261° |
| 2026-05-08 05:09 | 47.40020 | -60.31593 | 33765 ft | 403 kts | 261° |
| 2026-05-08 05:10 | 47.39417 | -60.43954 | 33770 ft | 403 kts | 261° |
| 2026-05-08 05:11 | 47.39008 | -60.52180 | 33736 ft | 402 kts | 261° |
| 2026-05-08 05:11 | 47.38596 | -60.60366 | 33736 ft | 399 kts | 261° |
| 2026-05-08 05:12 | 47.38181 | -60.68492 | 33729 ft | 397 kts | 261° |
| 2026-05-08 05:12 | 47.37759 | -60.76619 | 33728 ft | 396 kts | 261° |
| 2026-05-08 05:13 | 47.37335 | -60.84674 | 33732 ft | 395 kts | 261° |
| 2026-05-08 05:13 | 47.36902 | -60.92784 | 33724 ft | 396 kts | 261° |
| 2026-05-08 05:14 | 47.36465 | -61.00875 | 33762 ft | 397 kts | 260° |
| 2026-05-08 05:14 | 47.36019 | -61.09018 | 33723 ft | 398 kts | 260° |
| 2026-05-08 05:15 | 47.35569 | -61.17143 | 33714 ft | 398 kts | 260° |
| 2026-05-08 05:15 | 47.35112 | -61.25282 | 33716 ft | 398 kts | 260° |
| 2026-05-08 05:16 | 47.34651 | -61.33394 | 33710 ft | 398 kts | 260° |
| 2026-05-08 05:16 | 47.34181 | -61.41549 | 33708 ft | 398 kts | 260° |
| 2026-05-08 05:17 | 47.33710 | -61.49632 | 33736 ft | 399 kts | 259° |
| 2026-05-08 05:17 | 47.33225 | -61.57831 | 33706 ft | 401 kts | 259° |
| 2026-05-08 05:18 | 47.32736 | -61.66009 | 33700 ft | 402 kts | 259° |
| 2026-05-08 05:18 | 47.32240 | -61.74207 | 33696 ft | 403 kts | 259° |
| 2026-05-08 05:19 | 47.31736 | -61.82459 | 33695 ft | 403 kts | 259° |
| 2026-05-08 05:19 | 47.31226 | -61.90693 | 33703 ft | 402 kts | 259° |
| 2026-05-08 05:20 | 47.30716 | -61.98859 | 33756 ft | 400 kts | 259° |
| 2026-05-08 05:20 | 47.30197 | -62.07028 | 33707 ft | 403 kts | 259° |
| 2026-05-08 05:21 | 47.29668 | -62.15270 | 33691 ft | 404 kts | 259° |
| 2026-05-08 05:21 | 47.29132 | -62.23524 | 33691 ft | 405 kts | 259° |
| 2026-05-08 05:22 | 47.28592 | -62.31778 | 33682 ft | 406 kts | 259° |
| 2026-05-08 05:22 | 47.28045 | -62.40026 | 33682 ft | 406 kts | 259° |
| 2026-05-08 05:23 | 47.27492 | -62.48285 | 33677 ft | 406 kts | 258° |
| 2026-05-08 05:23 | 47.26927 | -62.56608 | 33683 ft | 408 kts | 258° |
| 2026-05-08 05:24 | 47.26360 | -62.64906 | 33674 ft | 406 kts | 258° |
| 2026-05-08 05:24 | 47.25791 | -62.73126 | 33675 ft | 404 kts | 258° |
| 2026-05-08 05:25 | 47.25216 | -62.81352 | 33678 ft | 403 kts | 258° |
| 2026-05-08 05:25 | 47.24637 | -62.89537 | 33676 ft | 402 kts | 258° |
| 2026-05-08 05:26 | 47.24054 | -62.97700 | 33672 ft | 402 kts | 258° |
| 2026-05-08 05:26 | 47.23462 | -63.05908 | 33675 ft | 404 kts | 257° |
| 2026-05-08 05:27 | 47.22861 | -63.14133 | 33665 ft | 404 kts | 257° |
| 2026-05-08 05:27 | 47.22258 | -63.22324 | 33662 ft | 405 kts | 257° |
| 2026-05-08 05:28 | 47.21648 | -63.30539 | 33656 ft | 405 kts | 257° |
| 2026-05-08 05:28 | 47.21027 | -63.38809 | 33659 ft | 406 kts | 257° |
| 2026-05-08 05:29 | 47.20404 | -63.47026 | 33655 ft | 406 kts | 257° |
| 2026-05-08 05:29 | 47.19766 | -63.55340 | 33663 ft | 410 kts | 256° |
| 2026-05-08 05:30 | 47.19118 | -63.63702 | 33657 ft | 415 kts | 256° |
| 2026-05-08 05:30 | 47.18461 | -63.72121 | 33652 ft | 417 kts | 256° |
| 2026-05-08 05:31 | 47.17791 | -63.80642 | 33641 ft | 418 kts | 256° |
| 2026-05-08 05:31 | 47.17121 | -63.89077 | 33647 ft | 417 kts | 256° |
| 2026-05-08 05:32 | 47.16443 | -63.97536 | 33652 ft | 415 kts | 256° |
| 2026-05-08 05:32 | 47.15765 | -64.05908 | 33651 ft | 414 kts | 256° |
| 2026-05-08 05:33 | 47.15077 | -64.14311 | 33655 ft | 413 kts | 256° |
| 2026-05-08 05:33 | 47.14385 | -64.22687 | 33661 ft | 413 kts | 256° |
| 2026-05-08 05:34 | 47.13691 | -64.31023 | 33660 ft | 413 kts | 256° |
| 2026-05-08 05:34 | 47.12983 | -64.39434 | 33665 ft | 413 kts | 256° |
| 2026-05-08 05:35 | 47.12273 | -64.47799 | 33700 ft | 415 kts | 256° |
| 2026-05-08 05:35 | 47.11554 | -64.56190 | 33667 ft | 416 kts | 256° |
| 2026-05-08 05:36 | 47.10829 | -64.64604 | 33655 ft | 415 kts | 256° |
| 2026-05-08 05:36 | 47.10095 | -64.73037 | 33658 ft | 415 kts | 256° |
| 2026-05-08 05:37 | 47.09362 | -64.81391 | 33649 ft | 414 kts | 256° |
| 2026-05-08 05:37 | 47.08623 | -64.89739 | 33656 ft | 413 kts | 256° |
| 2026-05-08 05:38 | 47.07880 | -64.98051 | 33723 ft | 412 kts | 255° |
| 2026-05-08 05:38 | 47.07122 | -65.06454 | 33659 ft | 414 kts | 255° |
| 2026-05-08 05:39 | 47.06363 | -65.14806 | 33661 ft | 415 kts | 255° |
| 2026-05-08 05:39 | 47.05591 | -65.23232 | 33662 ft | 416 kts | 255° |
| 2026-05-08 05:40 | 47.04820 | -65.31583 | 33672 ft | 416 kts | 255° |
| 2026-05-08 05:40 | 47.04038 | -65.39977 | 33654 ft | 416 kts | 255° |
| 2026-05-08 05:41 | 47.03245 | -65.48428 | 33730 ft | 416 kts | 256° |
| 2026-05-08 05:41 | 47.02449 | -65.56822 | 33687 ft | 419 kts | 256° |
| 2026-05-08 05:42 | 47.01642 | -65.65279 | 33680 ft | 421 kts | 256° |
| 2026-05-08 05:42 | 47.00823 | -65.73809 | 33687 ft | 422 kts | 256° |
| 2026-05-08 05:43 | 47.00002 | -65.82282 | 33690 ft | 422 kts | 256° |
| 2026-05-08 05:43 | 46.99168 | -65.90817 | 33683 ft | 422 kts | 256° |
| 2026-05-08 05:44 | 46.98335 | -65.99284 | 33727 ft | 423 kts | 256° |
| 2026-05-08 05:44 | 46.97483 | -66.07858 | 33698 ft | 425 kts | 256° |
| 2026-05-08 05:45 | 46.96629 | -66.16391 | 33697 ft | 425 kts | 257° |
| 2026-05-08 05:45 | 46.95763 | -66.24993 | 33694 ft | 426 kts | 257° |
| 2026-05-08 05:46 | 46.94897 | -66.33522 | 33702 ft | 425 kts | 257° |
| 2026-05-08 05:46 | 46.94024 | -66.42048 | 33698 ft | 425 kts | 257° |
| 2026-05-08 05:47 | 46.93139 | -66.50639 | 33702 ft | 425 kts | 257° |
| 2026-05-08 05:47 | 46.92253 | -66.59156 | 33698 ft | 424 kts | 257° |
| 2026-05-08 05:48 | 46.91364 | -66.67659 | 33709 ft | 424 kts | 257° |
| 2026-05-08 05:48 | 46.90464 | -66.76187 | 33711 ft | 424 kts | 257° |
| 2026-05-08 05:49 | 46.89563 | -66.84666 | 33710 ft | 423 kts | 257° |
| 2026-05-08 05:49 | 46.88657 | -66.93139 | 33716 ft | 423 kts | 257° |
| 2026-05-08 05:50 | 46.87891 | -67.00263 | 33717 ft | 424 kts | 257° |
| 2026-05-08 05:50 | 46.86960 | -67.08722 | 33717 ft | 425 kts | 257° |
| 2026-05-08 05:51 | 46.85959 | -67.17244 | 33713 ft | 425 kts | 256° |
| 2026-05-08 05:51 | 46.84940 | -67.25790 | 33717 ft | 426 kts | 256° |
| 2026-05-08 05:52 | 46.83926 | -67.34292 | 33714 ft | 426 kts | 256° |
| 2026-05-08 05:52 | 46.82908 | -67.42799 | 33715 ft | 426 kts | 256° |
| 2026-05-08 05:53 | 46.81877 | -67.51372 | 33719 ft | 428 kts | 257° |
| 2026-05-08 05:53 | 46.80847 | -67.59884 | 33720 ft | 427 kts | 257° |
| 2026-05-08 05:54 | 46.79815 | -67.68367 | 33713 ft | 426 kts | 257° |
| 2026-05-08 05:54 | 46.78768 | -67.76902 | 33705 ft | 425 kts | 256° |
| 2026-05-08 05:55 | 46.77724 | -67.85367 | 33699 ft | 424 kts | 256° |
| 2026-05-08 05:55 | 46.76678 | -67.93791 | 33765 ft | 424 kts | 256° |
| 2026-05-08 05:56 | 46.75616 | -68.02283 | 33730 ft | 426 kts | 256° |
| 2026-05-08 05:56 | 46.74541 | -68.10826 | 33717 ft | 427 kts | 256° |
| 2026-05-08 05:57 | 46.73468 | -68.19306 | 33723 ft | 427 kts | 256° |
| 2026-05-08 05:57 | 46.72385 | -68.27816 | 33725 ft | 428 kts | 256° |
| 2026-05-08 05:58 | 46.71291 | -68.36354 | 33727 ft | 428 kts | 256° |
| 2026-05-08 05:58 | 46.70196 | -68.44852 | 33745 ft | 429 kts | 256° |
| 2026-05-08 05:59 | 46.69080 | -68.53448 | 33712 ft | 430 kts | 256° |
| 2026-05-08 05:59 | 46.67969 | -68.61963 | 33722 ft | 430 kts | 256° |
| 2026-05-08 06:00 | 46.66847 | -68.70513 | 33733 ft | 430 kts | 256° |
| 2026-05-08 06:00 | 46.65721 | -68.79034 | 33720 ft | 430 kts | 256° |
| 2026-05-08 06:01 | 46.64583 | -68.87593 | 33722 ft | 429 kts | 256° |
| 2026-05-08 06:01 | 46.63450 | -68.96075 | 33728 ft | 428 kts | 256° |
| 2026-05-08 06:02 | 46.62306 | -69.04581 | 33722 ft | 427 kts | 256° |
| 2026-05-08 06:02 | 46.61165 | -69.13008 | 33734 ft | 426 kts | 256° |
| 2026-05-08 06:03 | 46.60014 | -69.21466 | 33729 ft | 426 kts | 256° |
| 2026-05-08 06:03 | 46.58859 | -69.29902 | 33730 ft | 426 kts | 256° |
| 2026-05-08 06:04 | 46.57698 | -69.38335 | 33769 ft | 427 kts | 256° |
| 2026-05-08 06:04 | 46.56523 | -69.46818 | 33739 ft | 428 kts | 256° |
| 2026-05-08 06:05 | 46.55343 | -69.55294 | 33728 ft | 427 kts | 256° |
| 2026-05-08 06:05 | 46.54162 | -69.63722 | 33725 ft | 426 kts | 256° |
| 2026-05-08 06:06 | 46.52978 | -69.72128 | 33739 ft | 426 kts | 256° |
| 2026-05-08 06:06 | 46.51788 | -69.80529 | 33726 ft | 426 kts | 256° |
| 2026-05-08 06:07 | 46.50582 | -69.88990 | 33756 ft | 426 kts | 256° |
| 2026-05-08 06:07 | 46.49379 | -69.97388 | 33733 ft | 427 kts | 256° |
| 2026-05-08 06:08 | 46.48164 | -70.05824 | 33732 ft | 427 kts | 256° |
| 2026-05-08 06:08 | 46.46938 | -70.14285 | 33727 ft | 427 kts | 256° |
| 2026-05-08 06:09 | 46.45719 | -70.22656 | 33743 ft | 426 kts | 256° |
| 2026-05-08 06:09 | 46.44487 | -70.31071 | 33746 ft | 425 kts | 256° |
| 2026-05-08 06:10 | 46.43256 | -70.39434 | 33761 ft | 426 kts | 256° |
| 2026-05-08 06:10 | 46.42012 | -70.47836 | 33760 ft | 427 kts | 256° |
| 2026-05-08 06:11 | 46.40762 | -70.56230 | 33754 ft | 427 kts | 255° |
| 2026-05-08 06:11 | 46.39508 | -70.64606 | 33754 ft | 428 kts | 255° |
| 2026-05-08 06:12 | 46.38242 | -70.73024 | 33766 ft | 428 kts | 255° |
| 2026-05-08 06:12 | 46.36964 | -70.81473 | 33795 ft | 427 kts | 255° |
| 2026-05-08 06:13 | 46.35689 | -70.89858 | 33770 ft | 427 kts | 255° |
| 2026-05-08 06:13 | 46.34409 | -70.98232 | 33762 ft | 427 kts | 255° |
| 2026-05-08 06:14 | 46.33120 | -71.06623 | 33766 ft | 426 kts | 255° |
| 2026-05-08 06:14 | 46.31833 | -71.14953 | 33773 ft | 426 kts | 255° |
| 2026-05-08 06:15 | 46.30534 | -71.23320 | 33779 ft | 426 kts | 255° |
| 2026-05-08 06:15 | 46.29225 | -71.31707 | 33798 ft | 428 kts | 255° |
| 2026-05-08 06:16 | 46.27911 | -71.40077 | 33777 ft | 429 kts | 255° |
| 2026-05-08 06:16 | 46.26588 | -71.48471 | 33779 ft | 430 kts | 255° |
| 2026-05-08 06:17 | 46.24584 | -71.61106 | 33784 ft | 428 kts | 255° |
| 2026-05-08 06:17 | 46.23251 | -71.69450 | 33788 ft | 427 kts | 255° |
| 2026-05-08 06:18 | 46.21907 | -71.77820 | 33808 ft | 428 kts | 255° |
| 2026-05-08 06:18 | 46.20562 | -71.86154 | 33797 ft | 429 kts | 255° |
| 2026-05-08 06:19 | 46.19196 | -71.94580 | 33795 ft | 430 kts | 255° |
| 2026-05-08 06:19 | 46.17827 | -72.02983 | 33781 ft | 431 kts | 255° |
| 2026-05-08 06:20 | 46.16454 | -72.11367 | 33770 ft | 430 kts | 255° |
| 2026-05-08 06:20 | 46.15074 | -72.19756 | 33781 ft | 428 kts | 255° |
| 2026-05-08 06:21 | 46.13691 | -72.28120 | 33773 ft | 429 kts | 255° |
| 2026-05-08 06:21 | 46.12304 | -72.36464 | 33776 ft | 429 kts | 255° |
| 2026-05-08 06:22 | 46.10907 | -72.44829 | 33767 ft | 430 kts | 255° |
| 2026-05-08 06:22 | 46.09507 | -72.53171 | 33769 ft | 430 kts | 255° |
| 2026-05-08 06:23 | 46.08090 | -72.61568 | 33768 ft | 430 kts | 255° |
| 2026-05-08 06:23 | 46.06678 | -72.69901 | 33797 ft | 431 kts | 255° |
| 2026-05-08 06:24 | 46.05249 | -72.78294 | 33771 ft | 430 kts | 255° |
| 2026-05-08 06:24 | 46.03826 | -72.86617 | 33771 ft | 429 kts | 255° |
| 2026-05-08 06:25 | 46.02396 | -72.94932 | 33773 ft | 428 kts | 255° |
| 2026-05-08 06:25 | 46.00967 | -73.03208 | 33772 ft | 427 kts | 255° |
| 2026-05-08 06:26 | 45.99527 | -73.11507 | 33772 ft | 427 kts | 255° |
| 2026-05-08 06:26 | 45.98089 | -73.19751 | 33781 ft | 428 kts | 255° |
| 2026-05-08 06:27 | 45.96637 | -73.28042 | 33784 ft | 429 kts | 255° |
| 2026-05-08 06:27 | 45.95169 | -73.36386 | 33769 ft | 430 kts | 255° |
| 2026-05-08 06:28 | 45.93702 | -73.44685 | 33780 ft | 429 kts | 255° |
| 2026-05-08 06:28 | 45.92222 | -73.53015 | 33787 ft | 429 kts | 255° |
| 2026-05-08 06:29 | 45.90750 | -73.61264 | 33788 ft | 428 kts | 255° |
| 2026-05-08 06:29 | 45.89265 | -73.69551 | 33789 ft | 427 kts | 254° |
| 2026-05-08 06:30 | 45.87784 | -73.77779 | 33796 ft | 427 kts | 254° |
| 2026-05-08 06:30 | 45.86296 | -73.86003 | 33793 ft | 427 kts | 254° |
| 2026-05-08 06:31 | 45.84796 | -73.94258 | 33787 ft | 427 kts | 254° |
| 2026-05-08 06:31 | 45.83296 | -74.02477 | 33785 ft | 426 kts | 254° |
| 2026-05-08 06:32 | 45.81798 | -74.10651 | 33803 ft | 426 kts | 254° |
| 2026-05-08 06:32 | 45.80278 | -74.18901 | 33798 ft | 427 kts | 254° |
| 2026-05-08 06:33 | 45.78764 | -74.27092 | 33806 ft | 427 kts | 254° |
| 2026-05-08 06:33 | 45.77229 | -74.35353 | 33810 ft | 428 kts | 254° |
| 2026-05-08 06:34 | 45.75699 | -74.43553 | 33809 ft | 429 kts | 254° |
| 2026-05-08 06:34 | 45.74151 | -74.51812 | 33812 ft | 429 kts | 254° |
| 2026-05-08 06:35 | 45.72606 | -74.60020 | 33823 ft | 430 kts | 254° |
| 2026-05-08 06:35 | 45.71036 | -74.68325 | 33828 ft | 432 kts | 254° |
| 2026-05-08 06:36 | 45.69467 | -74.76588 | 33820 ft | 432 kts | 254° |
| 2026-05-08 06:36 | 45.67881 | -74.84903 | 33828 ft | 433 kts | 254° |
| 2026-05-08 06:37 | 45.66299 | -74.93162 | 33829 ft | 433 kts | 254° |
| 2026-05-08 06:37 | 45.64695 | -75.01499 | 33846 ft | 433 kts | 254° |
| 2026-05-08 06:38 | 45.63094 | -75.09784 | 33838 ft | 434 kts | 254° |
| 2026-05-08 06:38 | 45.61478 | -75.18113 | 33840 ft | 434 kts | 254° |
| 2026-05-08 06:39 | 45.59863 | -75.26402 | 33845 ft | 433 kts | 254° |
| 2026-05-08 06:39 | 45.58255 | -75.34617 | 33850 ft | 430 kts | 254° |
| 2026-05-08 06:40 | 45.56644 | -75.42816 | 33863 ft | 429 kts | 254° |
| 2026-05-08 06:40 | 45.55028 | -75.51003 | 33866 ft | 429 kts | 254° |
| 2026-05-08 06:41 | 45.53400 | -75.59214 | 33862 ft | 430 kts | 254° |
| 2026-05-08 06:41 | 45.51775 | -75.67380 | 33862 ft | 431 kts | 254° |
| 2026-05-08 06:42 | 45.50131 | -75.75608 | 33866 ft | 431 kts | 254° |
| 2026-05-08 06:42 | 45.48480 | -75.83834 | 33850 ft | 432 kts | 254° |
| 2026-05-08 06:43 | 45.46827 | -75.92037 | 33866 ft | 431 kts | 254° |
| 2026-05-08 06:43 | 45.45166 | -76.00246 | 33880 ft | 431 kts | 254° |
| 2026-05-08 06:44 | 45.43500 | -76.08448 | 33877 ft | 431 kts | 253° |
| 2026-05-08 06:44 | 45.41838 | -76.16600 | 33881 ft | 430 kts | 253° |
| 2026-05-08 06:45 | 45.40124 | -76.24768 | 33884 ft | 430 kts | 250° |
| 2026-05-08 06:45 | 45.37381 | -76.32329 | 33888 ft | 431 kts | 242° |
| 2026-05-08 06:46 | 45.34364 | -76.39689 | 33876 ft | 432 kts | 242° |
| 2026-05-08 06:46 | 45.31371 | -76.47099 | 33890 ft | 432 kts | 242° |
| 2026-05-08 06:47 | 45.28416 | -76.54531 | 33894 ft | 432 kts | 242° |
| 2026-05-08 06:47 | 45.25471 | -76.61969 | 33893 ft | 431 kts | 242° |
| 2026-05-08 06:48 | 45.22536 | -76.69368 | 33900 ft | 431 kts | 242° |
| 2026-05-08 06:48 | 45.19599 | -76.76749 | 33870 ft | 431 kts | 242° |
| 2026-05-08 06:49 | 45.16649 | -76.84141 | 33909 ft | 429 kts | 242° |
| 2026-05-08 06:49 | 45.13722 | -76.91457 | 33898 ft | 429 kts | 242° |
| 2026-05-08 06:50 | 45.10771 | -76.98810 | 33907 ft | 429 kts | 242° |
| 2026-05-08 06:50 | 45.07817 | -77.06155 | 33903 ft | 429 kts | 242° |
| 2026-05-08 06:51 | 45.04874 | -77.13452 | 33905 ft | 429 kts | 242° |
| 2026-05-08 06:51 | 45.01925 | -77.20744 | 33901 ft | 428 kts | 242° |
| 2026-05-08 06:52 | 44.98963 | -77.28049 | 33905 ft | 427 kts | 242° |
| 2026-05-08 06:52 | 44.95998 | -77.35343 | 33913 ft | 428 kts | 242° |
| 2026-05-08 06:53 | 44.93049 | -77.42582 | 33908 ft | 428 kts | 242° |
| 2026-05-08 06:53 | 44.90067 | -77.49881 | 33905 ft | 429 kts | 242° |
| 2026-05-08 06:54 | 44.87084 | -77.57162 | 33898 ft | 427 kts | 242° |
| 2026-05-08 06:54 | 44.84120 | -77.64378 | 33906 ft | 425 kts | 242° |
| 2026-05-08 06:55 | 44.81172 | -77.71542 | 33912 ft | 424 kts | 242° |
| 2026-05-08 06:55 | 44.78233 | -77.78665 | 33922 ft | 418 kts | 242° |
| 2026-05-08 06:56 | 44.76771 | -77.82197 | 33536 ft | 414 kts | 242° |
| 2026-05-08 06:56 | 44.75339 | -77.85658 | 32880 ft | 412 kts | 242° |
| 2026-05-08 06:56 | 44.73896 | -77.89158 | 32074 ft | 411 kts | 242° |
| 2026-05-08 06:56 | 44.72467 | -77.92622 | 31455 ft | 409 kts | 242° |
| 2026-05-08 06:57 | 44.71052 | -77.96049 | 30940 ft | 407 kts | 243° |
| 2026-05-08 06:57 | 44.69625 | -77.99506 | 30190 ft | 407 kts | 243° |
| 2026-05-08 06:57 | 44.68211 | -78.02923 | 29470 ft | 404 kts | 243° |
| 2026-05-08 06:57 | 44.66816 | -78.06290 | 28786 ft | 399 kts | 243° |
| 2026-05-08 06:58 | 44.65416 | -78.09665 | 28144 ft | 394 kts | 243° |
| 2026-05-08 06:58 | 44.64052 | -78.12948 | 27530 ft | 389 kts | 243° |
| 2026-05-08 06:58 | 44.62689 | -78.16227 | 26938 ft | 385 kts | 243° |
| 2026-05-08 06:58 | 44.61350 | -78.19447 | 26326 ft | 381 kts | 243° |
| 2026-05-08 06:59 | 44.60029 | -78.22621 | 25731 ft | 378 kts | 243° |
| 2026-05-08 06:59 | 44.58713 | -78.25777 | 25158 ft | 375 kts | 243° |
| 2026-05-08 06:59 | 44.57838 | -78.27870 | 24740 ft | 372 kts | 243° |
| 2026-05-08 06:59 | 44.56528 | -78.31003 | 24186 ft | 369 kts | 243° |
| 2026-05-08 07:00 | 44.55235 | -78.34084 | 23631 ft | 367 kts | 243° |
| 2026-05-08 07:00 | 44.53940 | -78.37168 | 22991 ft | 365 kts | 243° |
| 2026-05-08 07:00 | 44.52655 | -78.40226 | 22392 ft | 361 kts | 243° |
| 2026-05-08 07:00 | 44.51387 | -78.43239 | 21826 ft | 358 kts | 243° |
| 2026-05-08 07:01 | 44.50135 | -78.46213 | 21267 ft | 355 kts | 243° |
| 2026-05-08 07:01 | 44.48884 | -78.49181 | 20727 ft | 352 kts | 243° |
| 2026-05-08 07:01 | 44.47649 | -78.52109 | 20179 ft | 350 kts | 243° |
| 2026-05-08 07:01 | 44.46418 | -78.55027 | 19650 ft | 348 kts | 243° |
| 2026-05-08 07:02 | 44.45195 | -78.57923 | 19115 ft | 346 kts | 243° |
| 2026-05-08 07:02 | 44.43960 | -78.60844 | 18598 ft | 344 kts | 243° |
| 2026-05-08 07:02 | 44.42748 | -78.63708 | 18039 ft | 343 kts | 243° |
| 2026-05-08 07:02 | 44.41526 | -78.66596 | 17459 ft | 350 kts | 243° |
| 2026-05-08 07:03 | 44.40269 | -78.69563 | 16898 ft | 358 kts | 243° |
| 2026-05-08 07:03 | 44.38985 | -78.72592 | 16346 ft | 365 kts | 243° |
| 2026-05-08 07:03 | 44.37673 | -78.75680 | 15774 ft | 372 kts | 242° |
| 2026-05-08 07:03 | 44.36362 | -78.78759 | 15386 ft | 374 kts | 242° |
| 2026-05-08 07:04 | 44.35016 | -78.81915 | 14897 ft | 374 kts | 242° |
| 2026-05-08 07:04 | 44.33703 | -78.84988 | 14331 ft | 371 kts | 242° |
| 2026-05-08 07:04 | 44.32383 | -78.88076 | 13789 ft | 365 kts | 242° |
| 2026-05-08 07:04 | 44.31095 | -78.91087 | 13234 ft | 360 kts | 242° |
| 2026-05-08 07:05 | 44.29811 | -78.94091 | 12651 ft | 355 kts | 242° |
| 2026-05-08 07:05 | 44.28549 | -78.97044 | 11895 ft | 356 kts | 241° |
| 2026-05-08 07:05 | 44.27288 | -78.99986 | 11311 ft | 352 kts | 241° |
| 2026-05-08 07:05 | 44.26042 | -79.02890 | 10772 ft | 348 kts | 241° |
| 2026-05-08 07:06 | 44.24807 | -79.05697 | 10617 ft | 333 kts | 238° |
| 2026-05-08 07:06 | 44.23360 | -79.08194 | 10490 ft | 321 kts | 230° |
| 2026-05-08 07:06 | 44.21864 | -79.10398 | 10332 ft | 310 kts | 229° |
| 2026-05-08 07:06 | 44.20401 | -79.12501 | 10222 ft | 299 kts | 229° |
| 2026-05-08 07:07 | 44.18984 | -79.14556 | 10079 ft | 289 kts | 229° |
| 2026-05-08 07:07 | 44.17619 | -79.16568 | 9972 ft | 278 kts | 230° |
| 2026-05-08 07:07 | 44.16317 | -79.18507 | 9762 ft | 271 kts | 230° |
| 2026-05-08 07:07 | 44.15053 | -79.20400 | 9419 ft | 269 kts | 230° |
| 2026-05-08 07:08 | 44.13778 | -79.22316 | 9058 ft | 267 kts | 230° |
| 2026-05-08 07:08 | 44.12533 | -79.24192 | 8727 ft | 264 kts | 230° |
| 2026-05-08 07:08 | 44.11282 | -79.26076 | 8391 ft | 261 kts | 230° |
| 2026-05-08 07:08 | 44.10074 | -79.27890 | 8230 ft | 251 kts | 230° |
| 2026-05-08 07:09 | 44.08918 | -79.29626 | 8087 ft | 241 kts | 230° |
| 2026-05-08 07:09 | 44.07778 | -79.31265 | 7963 ft | 231 kts | 222° |
| 2026-05-08 07:09 | 44.06282 | -79.32201 | 7796 ft | 241 kts | 194° |
| 2026-05-08 07:09 | 44.04603 | -79.32247 | 7589 ft | 242 kts | 181° |
| 2026-05-08 07:10 | 44.02931 | -79.32093 | 7331 ft | 242 kts | 180° |
| 2026-05-08 07:10 | 44.01261 | -79.31936 | 7068 ft | 241 kts | 180° |
| 2026-05-08 07:10 | 43.99595 | -79.31781 | 6836 ft | 240 kts | 180° |
| 2026-05-08 07:10 | 43.97937 | -79.31631 | 6594 ft | 238 kts | 180° |
| 2026-05-08 07:11 | 43.96290 | -79.31485 | 6352 ft | 233 kts | 180° |
| 2026-05-08 07:11 | 43.94688 | -79.31348 | 6102 ft | 229 kts | 180° |
| 2026-05-08 07:11 | 43.93113 | -79.31215 | 5868 ft | 228 kts | 181° |
| 2026-05-08 07:11 | 43.91537 | -79.31084 | 5626 ft | 229 kts | 180° |
| 2026-05-08 07:12 | 43.89939 | -79.30949 | 5411 ft | 229 kts | 180° |
| 2026-05-08 07:12 | 43.88361 | -79.30858 | 5170 ft | 225 kts | 187° |
| 2026-05-08 07:12 | 43.86963 | -79.31614 | 4942 ft | 213 kts | 224° |
| 2026-05-08 07:12 | 43.85929 | -79.33069 | 4778 ft | 214 kts | 230° |
| 2026-05-08 07:13 | 43.84897 | -79.34524 | 4531 ft | 211 kts | 228° |
| 2026-05-08 07:13 | 43.83871 | -79.35929 | 4322 ft | 205 kts | 229° |
| 2026-05-08 07:13 | 43.82881 | -79.37344 | 4107 ft | 203 kts | 230° |
| 2026-05-08 07:13 | 43.81916 | -79.38744 | 3902 ft | 200 kts | 230° |
| 2026-05-08 07:14 | 43.80970 | -79.40126 | 3707 ft | 198 kts | 230° |
| 2026-05-08 07:14 | 43.80024 | -79.41507 | 3512 ft | 195 kts | 230° |
| 2026-05-08 07:14 | 43.79115 | -79.42832 | 3310 ft | 186 kts | 231° |
| 2026-05-08 07:14 | 43.78253 | -79.44089 | 3115 ft | 175 kts | 231° |
| 2026-05-08 07:15 | 43.77431 | -79.45289 | 2941 ft | 166 kts | 230° |
| 2026-05-08 07:15 | 43.76657 | -79.46422 | 2763 ft | 162 kts | 231° |
| 2026-05-08 07:15 | 43.75882 | -79.47554 | 2603 ft | 162 kts | 231° |
| 2026-05-08 07:15 | 43.75101 | -79.48692 | 2452 ft | 163 kts | 231° |
| 2026-05-08 07:16 | 43.74326 | -79.49825 | 2276 ft | 164 kts | 231° |
| 2026-05-08 07:16 | 43.73542 | -79.50966 | 2118 ft | 165 kts | 229° |
| 2026-05-08 07:16 | 43.72757 | -79.52109 | 2009 ft | 165 kts | 229° |
| 2026-05-08 07:16 | 43.71969 | -79.53255 | 1915 ft | 166 kts | 230° |
| 2026-05-08 07:17 | 43.71162 | -79.54432 | 1675 ft | 165 kts | 229° |
| 2026-05-08 07:17 | 43.70385 | -79.55561 | 1453 ft | 163 kts | 230° |
| 2026-05-08 07:17 | 43.69603 | -79.56703 | 1198 ft | 161 kts | 228° |
| 2026-05-08 07:17 | 43.68837 | -79.57811 | 1000 ft | 160 kts | 227° |
| 2026-05-08 07:18 | 43.68077 | -79.58918 | 778 ft | 162 kts | 227° |
| 2026-05-08 07:18 | 43.67314 | -79.60029 | 583 ft | 157 kts | 226° |
| 2026-05-08 07:18 | 43.66615 | -79.61045 | 570 ft | 124 kts | 226° |
| 2026-05-08 07:18 | 43.66284 | -79.61524 | 567 ft | 30 kts | 226° |
| 2026-05-08 07:19 | 43.66141 | -79.61732 | 576 ft | 30 kts | 227° |
| 2026-05-08 07:19 | 43.66024 | -79.61970 | 573 ft | 29 kts | 248° |
| 2026-05-08 07:19 | 43.66012 | -79.62194 | 573 ft | 24 kts | 300° |
| 2026-05-08 07:19 | 43.66119 | -79.62363 | 575 ft | 24 kts | 316° |
| 2026-05-08 07:20 | 43.66259 | -79.62483 | 570 ft | 25 kts | 3° |
| 2026-05-08 07:20 | 43.66396 | -79.62346 | 573 ft | 25 kts | 43° |
| 2026-05-08 07:20 | 43.66522 | -79.62182 | 576 ft | 25 kts | 41° |
| 2026-05-08 07:20 | 43.66650 | -79.62025 | 574 ft | 25 kts | 44° |
| 2026-05-08 07:21 | 43.66779 | -79.61865 | 577 ft | 25 kts | 40° |
| 2026-05-08 07:21 | 43.66906 | -79.61707 | 578 ft | 25 kts | 42° |
| 2026-05-08 07:21 | 43.67034 | -79.61545 | 580 ft | 25 kts | 42° |
| 2026-05-08 07:21 | 43.67159 | -79.61383 | 579 ft | 25 kts | 47° |
| 2026-05-08 07:22 | 43.67283 | -79.61285 | 569 ft | 22 kts | 337° |
| 2026-05-08 07:22 | 43.67399 | -79.61419 | 574 ft | 22 kts | 316° |
| 2026-05-08 07:22 | 43.67509 | -79.61562 | 575 ft | 22 kts | 317° |
| 2026-05-08 07:22 | 43.67625 | -79.61701 | 573 ft | 22 kts | 320° |
| 2026-05-08 07:23 | 43.67735 | -79.61846 | 573 ft | 22 kts | 316° |
| 2026-05-08 07:23 | 43.67848 | -79.61989 | 569 ft | 22 kts | 320° |
| 2026-05-08 07:23 | 43.67964 | -79.62011 | 574 ft | 10 kts | 25° |
| 2026-05-08 07:23 | 43.68026 | -79.61987 | 571 ft | 9 kts | 5° |
| 2026-05-08 07:24 | 43.68036 | -79.61989 | 571 ft | 1 kts | 346° |
| 2026-05-08 07:24 | 43.68045 | -79.61996 | 575 ft | 2 kts | 329° |
| 2026-05-08 07:24 | 43.68053 | -79.62010 | 573 ft | 2 kts | 304° |
| 2026-05-08 07:24 | 43.68063 | -79.62031 | 573 ft | 3 kts | 304° |
| 2026-05-08 07:25 | 43.68088 | -79.62072 | 575 ft | 16 kts | 312° |
| 2026-05-08 07:25 | 43.68171 | -79.62179 | 575 ft | 16 kts | 321° |
| 2026-05-08 07:25 | 43.68339 | -79.62240 | 573 ft | 1 kts | 40° |
| 2026-05-08 07:26 | 43.68342 | -79.62237 | 573 ft | 0 kts | 41° |
| 2026-05-08 07:26 | 43.68346 | -79.62232 | 575 ft | 4 kts | 41° |
| 2026-05-08 07:26 | 43.68386 | -79.62240 | 570 ft | 6 kts | 290° |
| 2026-05-08 07:27 | 43.68336 | -79.62283 | 575 ft | 14 kts | 194° |
| 2026-05-08 07:27 | 43.68240 | -79.62254 | 575 ft | 16 kts | 142° |
| 2026-05-08 07:27 | 43.68199 | -79.62162 | 567 ft | 8 kts | 95° |
| 2026-05-08 07:27 | 43.68201 | -79.62129 | 566 ft | 1 kts | 80° |
| 2026-05-08 07:28 | 43.68203 | -79.62118 | 569 ft | 1 kts | 81° |
| 2026-05-08 07:28 | 43.68203 | -79.62113 | 574 ft | 1 kts | 84° |
| 2026-05-08 07:28 | 43.68204 | -79.62107 | 575 ft | 1 kts | 74° |
| 2026-05-08 07:28 | 43.68205 | -79.62105 | 574 ft | 0 kts | 74° |